<?xml version='1.0' encoding='UTF-8'?><gpx version="1.1" creator="JPX - https://github.com/jenetics/jpx" xmlns="http://www.topografix.com/GPX/1/1"><trk><trkseg><trkpt lat="44.8212783" lon="9.502105"><ele>194.0</ele><time>2026-04-18T08:03:33.403Z</time></trkpt><trkpt lat="44.82124" lon="9.5021783"><ele>194.0</ele><time>2026-04-18T08:03:38.403Z</time></trkpt><trkpt lat="44.8211968" lon="9.5022591"><ele>194.0</ele><time>2026-04-18T08:03:45.629Z</time></trkpt><trkpt lat="44.8211633" lon="9.502354"><ele>194.0</ele><time>2026-04-18T08:03:51.57Z</time></trkpt><trkpt lat="44.8211439" lon="9.5024442"><ele>194.0</ele><time>2026-04-18T08:03:57.679Z</time></trkpt><trkpt lat="44.8210977" lon="9.5025179"><ele>194.0</ele><time>2026-04-18T08:04:02.712Z</time></trkpt><trkpt lat="44.8210594" lon="9.5025979"><ele>194.0</ele><time>2026-04-18T08:04:08.435Z</time></trkpt><trkpt lat="44.8210226" lon="9.5026874"><ele>194.0</ele><time>2026-04-18T08:04:13.72Z</time></trkpt><trkpt lat="44.8209507" lon="9.502729"><ele>194.0</ele><time>2026-04-18T08:04:19.698Z</time></trkpt><trkpt lat="44.8208852" lon="9.502735"><ele>194.0</ele><time>2026-04-18T08:04:24.723Z</time></trkpt><trkpt lat="44.8208165" lon="9.5027489"><ele>194.0</ele><time>2026-04-18T08:04:30.725Z</time></trkpt><trkpt lat="44.8207665" lon="9.5028226"><ele>194.0</ele><time>2026-04-18T08:04:35.626Z</time></trkpt><trkpt lat="44.8206988" lon="9.5028651"><ele>194.0</ele><time>2026-04-18T08:04:41.729Z</time></trkpt><trkpt lat="44.8206312" lon="9.5029128"><ele>194.0</ele><time>2026-04-18T08:04:46.936Z</time></trkpt><trkpt lat="44.8205729" lon="9.5029491"><ele>194.0</ele><time>2026-04-18T08:04:51.558Z</time></trkpt><trkpt lat="44.8205093" lon="9.5029655"><ele>194.0</ele><time>2026-04-18T08:04:56.571Z</time></trkpt><trkpt lat="44.8204569" lon="9.5030342"><ele>194.0</ele><time>2026-04-18T08:05:01.652Z</time></trkpt><trkpt lat="44.8204131" lon="9.5030995"><ele>194.0</ele><time>2026-04-18T08:05:06.68Z</time></trkpt><trkpt lat="44.8203479" lon="9.5031491"><ele>194.0</ele><time>2026-04-18T08:05:12.688Z</time></trkpt><trkpt lat="44.8202796" lon="9.5031852"><ele>194.0</ele><time>2026-04-18T08:05:18.7Z</time></trkpt><trkpt lat="44.820218" lon="9.5032065"><ele>194.0</ele><time>2026-04-18T08:05:24.606Z</time></trkpt><trkpt lat="44.8201527" lon="9.5032449"><ele>195.42857142857142</ele><time>2026-04-18T08:05:29.717Z</time></trkpt><trkpt lat="44.8200826" lon="9.5032674"><ele>196.85714285714286</ele><time>2026-04-18T08:05:34.611Z</time></trkpt><trkpt lat="44.8200168" lon="9.5032495"><ele>198.28571428571428</ele><time>2026-04-18T08:05:40.63Z</time></trkpt><trkpt lat="44.8199719" lon="9.5031818"><ele>199.71428571428572</ele><time>2026-04-18T08:05:45.636Z</time></trkpt><trkpt lat="44.8199481" lon="9.5030988"><ele>201.14285714285717</ele><time>2026-04-18T08:05:50.639Z</time></trkpt><trkpt lat="44.8199238" lon="9.5030064"><ele>202.57142857142858</ele><time>2026-04-18T08:05:56.641Z</time></trkpt><trkpt lat="44.8198952" lon="9.5029223"><ele>204.0</ele><time>2026-04-18T08:06:02.642Z</time></trkpt><trkpt lat="44.8198616" lon="9.5028328"><ele>204.14285714285714</ele><time>2026-04-18T08:06:08.644Z</time></trkpt><trkpt lat="44.8198271" lon="9.5027494"><ele>204.28571428571428</ele><time>2026-04-18T08:06:13.652Z</time></trkpt><trkpt lat="44.8197991" lon="9.5026679"><ele>204.42857142857144</ele><time>2026-04-18T08:06:19.657Z</time></trkpt><trkpt lat="44.8197431" lon="9.5026189"><ele>204.57142857142856</ele><time>2026-04-18T08:06:23.694Z</time></trkpt><trkpt lat="44.8197094" lon="9.5025254"><ele>204.7142857142857</ele><time>2026-04-18T08:06:28.596Z</time></trkpt><trkpt lat="44.81968" lon="9.5024293"><ele>204.85714285714286</ele><time>2026-04-18T08:06:33.719Z</time></trkpt><trkpt lat="44.8196654" lon="9.5023407"><ele>205.0</ele><time>2026-04-18T08:06:38.669Z</time></trkpt><trkpt lat="44.8196432" lon="9.5022567"><ele>205.0</ele><time>2026-04-18T08:06:43.679Z</time></trkpt><trkpt lat="44.8196206" lon="9.5021694"><ele>205.0</ele><time>2026-04-18T08:06:48.691Z</time></trkpt><trkpt lat="44.8196263" lon="9.5020626"><ele>205.0</ele><time>2026-04-18T08:06:54.696Z</time></trkpt><trkpt lat="44.8196409" lon="9.5019536"><ele>205.0</ele><time>2026-04-18T08:07:00.699Z</time></trkpt><trkpt lat="44.8196798" lon="9.5018641"><ele>205.0</ele><time>2026-04-18T08:07:06.705Z</time></trkpt><trkpt lat="44.8197253" lon="9.5017798"><ele>205.0</ele><time>2026-04-18T08:07:11.706Z</time></trkpt><trkpt lat="44.8197427" lon="9.5016861"><ele>205.0</ele><time>2026-04-18T08:07:16.711Z</time></trkpt><trkpt lat="44.8197317" lon="9.5015388"><ele>205.14285714285714</ele><time>2026-04-18T08:07:32.654Z</time></trkpt><trkpt lat="44.8196825" lon="9.5014548"><ele>205.28571428571428</ele><time>2026-04-18T08:07:36.658Z</time></trkpt><trkpt lat="44.8196257" lon="9.501386"><ele>205.42857142857142</ele><time>2026-04-18T08:07:40.671Z</time></trkpt><trkpt lat="44.8195558" lon="9.5014002"><ele>205.57142857142856</ele><time>2026-04-18T08:07:44.692Z</time></trkpt><trkpt lat="44.8194853" lon="9.5013838"><ele>205.71428571428572</ele><time>2026-04-18T08:07:50.622Z</time></trkpt><trkpt lat="44.8194702" lon="9.5012838"><ele>205.85714285714283</ele><time>2026-04-18T08:07:56.63Z</time></trkpt><trkpt lat="44.8195246" lon="9.5012151"><ele>206.0</ele><time>2026-04-18T08:08:00.646Z</time></trkpt><trkpt lat="44.8195506" lon="9.501302"><ele>205.99999999999997</ele><time>2026-04-18T08:08:24.698Z</time></trkpt><trkpt lat="44.8195897" lon="9.5013746"><ele>206.0</ele><time>2026-04-18T08:08:29.708Z</time></trkpt><trkpt lat="44.8196303" lon="9.5014599"><ele>206.0</ele><time>2026-04-18T08:08:35.653Z</time></trkpt><trkpt lat="44.8196801" lon="9.5015341"><ele>206.0</ele><time>2026-04-18T08:08:41.647Z</time></trkpt><trkpt lat="44.8197316" lon="9.5015904"><ele>206.0</ele><time>2026-04-18T08:08:47.695Z</time></trkpt><trkpt lat="44.8198004" lon="9.5016222"><ele>205.99999999999997</ele><time>2026-04-18T08:08:52.685Z</time></trkpt><trkpt lat="44.8198588" lon="9.5015709"><ele>206.0</ele><time>2026-04-18T08:09:03.55Z</time></trkpt><trkpt lat="44.819908" lon="9.5015101"><ele>206.0</ele><time>2026-04-18T08:09:08.712Z</time></trkpt><trkpt lat="44.8199507" lon="9.5014266"><ele>206.0</ele><time>2026-04-18T08:09:13.741Z</time></trkpt><trkpt lat="44.8199891" lon="9.5013414"><ele>206.0</ele><time>2026-04-18T08:09:17.548Z</time></trkpt><trkpt lat="44.8200352" lon="9.5012657"><ele>206.0</ele><time>2026-04-18T08:09:21.675Z</time></trkpt><trkpt lat="44.8202111" lon="9.500869"><ele>204.42857142857142</ele><time>2026-04-18T08:09:46.631Z</time></trkpt><trkpt lat="44.8202233" lon="9.5007718"><ele>202.85714285714286</ele><time>2026-04-18T08:09:50.626Z</time></trkpt><trkpt lat="44.8202105" lon="9.500683"><ele>201.28571428571428</ele><time>2026-04-18T08:09:54.634Z</time></trkpt><trkpt lat="44.820216" lon="9.5005888"><ele>199.71428571428572</ele><time>2026-04-18T08:10:00.627Z</time></trkpt><trkpt lat="44.8202083" lon="9.5004919"><ele>198.14285714285714</ele><time>2026-04-18T08:10:06.64Z</time></trkpt><trkpt lat="44.8201605" lon="9.5004146"><ele>196.57142857142856</ele><time>2026-04-18T08:10:11.658Z</time></trkpt><trkpt lat="44.8201606" lon="9.500323"><ele>195.0</ele><time>2026-04-18T08:10:18.666Z</time></trkpt><trkpt lat="44.8201864" lon="9.5003919"><ele>197.57142857142856</ele><time>2026-04-18T08:10:48.618Z</time></trkpt><trkpt lat="44.8201402" lon="9.5004816"><ele>200.14285714285714</ele><time>2026-04-18T08:10:52.629Z</time></trkpt><trkpt lat="44.8201009" lon="9.5005768"><ele>202.71428571428572</ele><time>2026-04-18T08:10:57.697Z</time></trkpt><trkpt lat="44.8200672" lon="9.5006643"><ele>205.28571428571428</ele><time>2026-04-18T08:11:04.666Z</time></trkpt><trkpt lat="44.8200161" lon="9.5007251"><ele>207.85714285714286</ele><time>2026-04-18T08:11:09.667Z</time></trkpt><trkpt lat="44.8199695" lon="9.5008023"><ele>210.42857142857142</ele><time>2026-04-18T08:11:15.667Z</time></trkpt><trkpt lat="44.8199837" lon="9.5008956"><ele>213.0</ele><time>2026-04-18T08:11:19.668Z</time></trkpt><trkpt lat="44.8200237" lon="9.5009707"><ele>212.99999999999997</ele><time>2026-04-18T08:11:23.674Z</time></trkpt><trkpt lat="44.820058" lon="9.501065"><ele>213.0</ele><time>2026-04-18T08:11:28.551Z</time></trkpt><trkpt lat="44.8200804" lon="9.5011633"><ele>213.0</ele><time>2026-04-18T08:11:33.616Z</time></trkpt><trkpt lat="44.8200832" lon="9.5012622"><ele>213.0</ele><time>2026-04-18T08:11:42.647Z</time></trkpt><trkpt lat="44.8200467" lon="9.5013411"><ele>213.0</ele><time>2026-04-18T08:11:46.658Z</time></trkpt><trkpt lat="44.8200205" lon="9.5014275"><ele>212.99999999999997</ele><time>2026-04-18T08:11:49.494Z</time></trkpt><trkpt lat="44.819995" lon="9.5015306"><ele>213.0</ele><time>2026-04-18T08:11:53.569Z</time></trkpt><trkpt lat="44.8199471" lon="9.5015961"><ele>211.99999999999997</ele><time>2026-04-18T08:11:57.579Z</time></trkpt><trkpt lat="44.8198865" lon="9.501657"><ele>211.0</ele><time>2026-04-18T08:12:02.595Z</time></trkpt><trkpt lat="44.819824" lon="9.5017351"><ele>210.0</ele><time>2026-04-18T08:12:07.636Z</time></trkpt><trkpt lat="44.8197636" lon="9.501766"><ele>209.0</ele><time>2026-04-18T08:12:11.636Z</time></trkpt><trkpt lat="44.819705" lon="9.5018229"><ele>208.0</ele><time>2026-04-18T08:12:18.646Z</time></trkpt><trkpt lat="44.8196874" lon="9.5019145"><ele>206.99999999999997</ele><time>2026-04-18T08:12:25.657Z</time></trkpt><trkpt lat="44.8196723" lon="9.5020114"><ele>206.0</ele><time>2026-04-18T08:12:29.658Z</time></trkpt><trkpt lat="44.8196553" lon="9.5021239"><ele>205.99999999999997</ele><time>2026-04-18T08:12:33.572Z</time></trkpt><trkpt lat="44.8196742" lon="9.5022257"><ele>206.0</ele><time>2026-04-18T08:12:38.606Z</time></trkpt><trkpt lat="44.8197369" lon="9.5022482"><ele>206.0</ele><time>2026-04-18T08:12:44.626Z</time></trkpt><trkpt lat="44.8197942" lon="9.5021862"><ele>206.0</ele><time>2026-04-18T08:12:53.714Z</time></trkpt><trkpt lat="44.8198775" lon="9.5021415"><ele>206.0</ele><time>2026-04-18T08:13:11.66Z</time></trkpt><trkpt lat="44.8199509" lon="9.5020846"><ele>205.99999999999997</ele><time>2026-04-18T08:13:15.662Z</time></trkpt><trkpt lat="44.8200044" lon="9.502034"><ele>206.0</ele><time>2026-04-18T08:13:18.588Z</time></trkpt><trkpt lat="44.8200495" lon="9.50196"><ele>205.99999999999997</ele><time>2026-04-18T08:13:22.662Z</time></trkpt><trkpt lat="44.8200768" lon="9.5018607"><ele>206.0</ele><time>2026-04-18T08:13:26.662Z</time></trkpt><trkpt lat="44.82012" lon="9.5017883"><ele>206.0</ele><time>2026-04-18T08:13:30.663Z</time></trkpt><trkpt lat="44.8201919" lon="9.501751"><ele>206.0</ele><time>2026-04-18T08:13:34.664Z</time></trkpt><trkpt lat="44.8202491" lon="9.5017095"><ele>206.0</ele><time>2026-04-18T08:13:38.664Z</time></trkpt><trkpt lat="44.8202995" lon="9.5016506"><ele>205.99999999999997</ele><time>2026-04-18T08:13:44.664Z</time></trkpt><trkpt lat="44.8203511" lon="9.5015939"><ele>206.0</ele><time>2026-04-18T08:13:50.666Z</time></trkpt><trkpt lat="44.8204025" lon="9.5015409"><ele>204.85714285714283</ele><time>2026-04-18T08:13:54.574Z</time></trkpt><trkpt lat="44.820437" lon="9.5014645"><ele>203.71428571428572</ele><time>2026-04-18T08:13:59.665Z</time></trkpt><trkpt lat="44.8204928" lon="9.5014046"><ele>202.57142857142856</ele><time>2026-04-18T08:14:05.666Z</time></trkpt><trkpt lat="44.8205481" lon="9.5013583"><ele>201.42857142857142</ele><time>2026-04-18T08:14:11.666Z</time></trkpt><trkpt lat="44.8206024" lon="9.5012934"><ele>200.28571428571428</ele><time>2026-04-18T08:14:16.667Z</time></trkpt><trkpt lat="44.8206502" lon="9.5012354"><ele>199.14285714285714</ele><time>2026-04-18T08:14:20.668Z</time></trkpt><trkpt lat="44.8206808" lon="9.5011417"><ele>198.0</ele><time>2026-04-18T08:14:43.669Z</time></trkpt><trkpt lat="44.820698" lon="9.5010431"><ele>197.57142857142858</ele><time>2026-04-18T08:14:49.676Z</time></trkpt><trkpt lat="44.8207376" lon="9.5009677"><ele>197.14285714285714</ele><time>2026-04-18T08:14:55.669Z</time></trkpt><trkpt lat="44.8207887" lon="9.5009111"><ele>196.71428571428572</ele><time>2026-04-18T08:15:00.67Z</time></trkpt><trkpt lat="44.8208395" lon="9.5008374"><ele>196.28571428571428</ele><time>2026-04-18T08:15:06.67Z</time></trkpt><trkpt lat="44.8209071" lon="9.5007816"><ele>195.85714285714283</ele><time>2026-04-18T08:15:11.637Z</time></trkpt><trkpt lat="44.8209665" lon="9.5007297"><ele>195.42857142857142</ele><time>2026-04-18T08:15:16.671Z</time></trkpt><trkpt lat="44.8210254" lon="9.5006628"><ele>195.0</ele><time>2026-04-18T08:15:21.671Z</time></trkpt><trkpt lat="44.8210856" lon="9.5006267"><ele>194.14285714285714</ele><time>2026-04-18T08:15:29.719Z</time></trkpt><trkpt lat="44.8211424" lon="9.5005432"><ele>193.28571428571428</ele><time>2026-04-18T08:15:39.659Z</time></trkpt><trkpt lat="44.8211984" lon="9.5004804"><ele>192.42857142857144</ele><time>2026-04-18T08:15:42.672Z</time></trkpt><trkpt lat="44.8212559" lon="9.5004162"><ele>191.57142857142856</ele><time>2026-04-18T08:15:47.672Z</time></trkpt><trkpt lat="44.8213007" lon="9.5003425"><ele>190.71428571428572</ele><time>2026-04-18T08:15:52.672Z</time></trkpt><trkpt lat="44.8213528" lon="9.5002815"><ele>189.85714285714286</ele><time>2026-04-18T08:15:57.672Z</time></trkpt><trkpt lat="44.8214166" lon="9.5002431"><ele>189.0</ele><time>2026-04-18T08:16:03.61Z</time></trkpt><trkpt lat="44.8214742" lon="9.5001991"><ele>188.71428571428572</ele><time>2026-04-18T08:16:09.671Z</time></trkpt><trkpt lat="44.8215367" lon="9.500155"><ele>188.42857142857144</ele><time>2026-04-18T08:16:16.672Z</time></trkpt><trkpt lat="44.8215855" lon="9.500094"><ele>188.14285714285714</ele><time>2026-04-18T08:16:48.61Z</time></trkpt><trkpt lat="44.821641" lon="9.5000215"><ele>187.85714285714286</ele><time>2026-04-18T08:16:54.631Z</time></trkpt><trkpt lat="44.8216959" lon="9.4999634"><ele>187.57142857142858</ele><time>2026-04-18T08:16:58.599Z</time></trkpt><trkpt lat="44.8217421" lon="9.4998967"><ele>187.28571428571428</ele><time>2026-04-18T08:17:03.639Z</time></trkpt><trkpt lat="44.8217973" lon="9.4998289"><ele>187.0</ele><time>2026-04-18T08:17:09.646Z</time></trkpt><trkpt lat="44.8218603" lon="9.4997956"><ele>187.57142857142856</ele><time>2026-04-18T08:17:15.657Z</time></trkpt><trkpt lat="44.821909" lon="9.4997289"><ele>188.14285714285717</ele><time>2026-04-18T08:17:21.66Z</time></trkpt><trkpt lat="44.8219742" lon="9.499681"><ele>188.71428571428572</ele><time>2026-04-18T08:17:26.638Z</time></trkpt><trkpt lat="44.822034" lon="9.4996316"><ele>189.28571428571428</ele><time>2026-04-18T08:17:32.619Z</time></trkpt><trkpt lat="44.8220965" lon="9.4995931"><ele>189.85714285714283</ele><time>2026-04-18T08:17:38.679Z</time></trkpt><trkpt lat="44.8221418" lon="9.4995209"><ele>190.42857142857144</ele><time>2026-04-18T08:17:43.68Z</time></trkpt><trkpt lat="44.822189" lon="9.4994552"><ele>191.0</ele><time>2026-04-18T08:17:48.681Z</time></trkpt><trkpt lat="44.8222458" lon="9.4993959"><ele>191.14285714285714</ele><time>2026-04-18T08:17:53.48Z</time></trkpt><trkpt lat="44.8223029" lon="9.4993423"><ele>191.28571428571428</ele><time>2026-04-18T08:17:58.586Z</time></trkpt><trkpt lat="44.822357" lon="9.4992954"><ele>191.42857142857142</ele><time>2026-04-18T08:18:03.587Z</time></trkpt><trkpt lat="44.8224178" lon="9.4992492"><ele>191.57142857142856</ele><time>2026-04-18T08:18:08.593Z</time></trkpt><trkpt lat="44.8224817" lon="9.4992052"><ele>191.71428571428572</ele><time>2026-04-18T08:18:14.604Z</time></trkpt><trkpt lat="44.8225283" lon="9.4991394"><ele>191.85714285714283</ele><time>2026-04-18T08:18:20.619Z</time></trkpt><trkpt lat="44.8225917" lon="9.4990807"><ele>192.0</ele><time>2026-04-18T08:18:26.539Z</time></trkpt><trkpt lat="44.8226546" lon="9.4990372"><ele>192.28571428571428</ele><time>2026-04-18T08:18:32.628Z</time></trkpt><trkpt lat="44.8227161" lon="9.4989964"><ele>192.57142857142856</ele><time>2026-04-18T08:18:37.627Z</time></trkpt><trkpt lat="44.8227754" lon="9.4989492"><ele>192.85714285714283</ele><time>2026-04-18T08:18:42.544Z</time></trkpt><trkpt lat="44.8228405" lon="9.4989243"><ele>193.14285714285714</ele><time>2026-04-18T08:18:47.634Z</time></trkpt><trkpt lat="44.8229058" lon="9.4989153"><ele>193.42857142857144</ele><time>2026-04-18T08:18:52.656Z</time></trkpt><trkpt lat="44.8229718" lon="9.4989245"><ele>193.7142857142857</ele><time>2026-04-18T08:18:57.665Z</time></trkpt><trkpt lat="44.8230429" lon="9.4989332"><ele>194.0</ele><time>2026-04-18T08:19:02.504Z</time></trkpt><trkpt lat="44.8231123" lon="9.4989361"><ele>194.0</ele><time>2026-04-18T08:19:07.624Z</time></trkpt><trkpt lat="44.8231791" lon="9.4989275"><ele>194.0</ele><time>2026-04-18T08:19:12.593Z</time></trkpt><trkpt lat="44.823242" lon="9.4989328"><ele>194.0</ele><time>2026-04-18T08:19:16.594Z</time></trkpt><trkpt lat="44.8233118" lon="9.4989437"><ele>194.0</ele><time>2026-04-18T08:19:21.595Z</time></trkpt><trkpt lat="44.8233759" lon="9.4989484"><ele>194.0</ele><time>2026-04-18T08:19:26.578Z</time></trkpt><trkpt lat="44.8234463" lon="9.4989572"><ele>194.0</ele><time>2026-04-18T08:19:32.597Z</time></trkpt><trkpt lat="44.8235188" lon="9.4989674"><ele>194.0</ele><time>2026-04-18T08:19:37.499Z</time></trkpt><trkpt lat="44.823589" lon="9.4989862"><ele>194.14285714285714</ele><time>2026-04-18T08:19:42.661Z</time></trkpt><trkpt lat="44.8236553" lon="9.498997"><ele>194.2857142857143</ele><time>2026-04-18T08:19:47.628Z</time></trkpt><trkpt lat="44.8237238" lon="9.4990304"><ele>194.42857142857144</ele><time>2026-04-18T08:19:52.64Z</time></trkpt><trkpt lat="44.8237965" lon="9.4990177"><ele>194.57142857142856</ele><time>2026-04-18T08:19:58.656Z</time></trkpt><trkpt lat="44.8238608" lon="9.4990011"><ele>194.71428571428572</ele><time>2026-04-18T08:20:03.657Z</time></trkpt><trkpt lat="44.8239198" lon="9.498964"><ele>194.85714285714286</ele><time>2026-04-18T08:20:08.657Z</time></trkpt><trkpt lat="44.8239803" lon="9.4989316"><ele>195.0</ele><time>2026-04-18T08:20:13.658Z</time></trkpt><trkpt lat="44.8240488" lon="9.4989098"><ele>195.0</ele><time>2026-04-18T08:20:18.659Z</time></trkpt><trkpt lat="44.8241127" lon="9.498887"><ele>195.0</ele><time>2026-04-18T08:20:23.669Z</time></trkpt><trkpt lat="44.8241865" lon="9.4988786"><ele>195.0</ele><time>2026-04-18T08:20:28.518Z</time></trkpt><trkpt lat="44.8242556" lon="9.4988621"><ele>195.0</ele><time>2026-04-18T08:20:33.596Z</time></trkpt><trkpt lat="44.8243238" lon="9.4988669"><ele>195.0</ele><time>2026-04-18T08:20:38.607Z</time></trkpt><trkpt lat="44.8243953" lon="9.4989041"><ele>195.0</ele><time>2026-04-18T08:20:43.608Z</time></trkpt><trkpt lat="44.8244516" lon="9.4989609"><ele>195.0</ele><time>2026-04-18T08:20:48.561Z</time></trkpt><trkpt lat="44.8244817" lon="9.4990574"><ele>197.0</ele><time>2026-04-18T08:20:53.62Z</time></trkpt><trkpt lat="44.8245056" lon="9.4991407"><ele>199.0</ele><time>2026-04-18T08:20:57.621Z</time></trkpt><trkpt lat="44.8245356" lon="9.4992282"><ele>201.0</ele><time>2026-04-18T08:21:02.543Z</time></trkpt><trkpt lat="44.8245959" lon="9.4992571"><ele>203.0</ele><time>2026-04-18T08:21:07.638Z</time></trkpt><trkpt lat="44.8246521" lon="9.4992125"><ele>205.0</ele><time>2026-04-18T08:21:11.638Z</time></trkpt><trkpt lat="44.824685" lon="9.4991262"><ele>207.0</ele><time>2026-04-18T08:21:16.649Z</time></trkpt><trkpt lat="44.8246908" lon="9.499036"><ele>209.0</ele><time>2026-04-18T08:21:21.649Z</time></trkpt><trkpt lat="44.8246841" lon="9.4989434"><ele>209.0</ele><time>2026-04-18T08:21:26.651Z</time></trkpt><trkpt lat="44.824667" lon="9.4988513"><ele>209.0</ele><time>2026-04-18T08:21:31.652Z</time></trkpt><trkpt lat="44.8246704" lon="9.4987517"><ele>209.0</ele><time>2026-04-18T08:21:36.553Z</time></trkpt><trkpt lat="44.8246776" lon="9.4986617"><ele>209.0</ele><time>2026-04-18T08:21:41.641Z</time></trkpt><trkpt lat="44.8246967" lon="9.4985681"><ele>209.0</ele><time>2026-04-18T08:21:46.655Z</time></trkpt><trkpt lat="44.8247034" lon="9.4984764"><ele>209.0</ele><time>2026-04-18T08:21:51.583Z</time></trkpt><trkpt lat="44.8247129" lon="9.4983763"><ele>209.0</ele><time>2026-04-18T08:21:56.658Z</time></trkpt><trkpt lat="44.8247288" lon="9.4982898"><ele>209.28571428571428</ele><time>2026-04-18T08:22:01.659Z</time></trkpt><trkpt lat="44.8247303" lon="9.4981884"><ele>209.57142857142856</ele><time>2026-04-18T08:22:07.677Z</time></trkpt><trkpt lat="44.824739" lon="9.4980816"><ele>209.85714285714286</ele><time>2026-04-18T08:22:13.638Z</time></trkpt><trkpt lat="44.8247391" lon="9.4979778"><ele>210.14285714285714</ele><time>2026-04-18T08:22:19.662Z</time></trkpt><trkpt lat="44.8247387" lon="9.4978848"><ele>210.42857142857144</ele><time>2026-04-18T08:22:24.663Z</time></trkpt><trkpt lat="44.8247376" lon="9.4977876"><ele>210.71428571428572</ele><time>2026-04-18T08:22:29.663Z</time></trkpt><trkpt lat="44.8247294" lon="9.497688"><ele>211.0</ele><time>2026-04-18T08:22:34.583Z</time></trkpt><trkpt lat="44.8247312" lon="9.4975932"><ele>211.42857142857144</ele><time>2026-04-18T08:22:40.572Z</time></trkpt><trkpt lat="44.8247485" lon="9.4974903"><ele>211.85714285714286</ele><time>2026-04-18T08:22:46.563Z</time></trkpt><trkpt lat="44.8247805" lon="9.4974035"><ele>212.28571428571428</ele><time>2026-04-18T08:22:52.535Z</time></trkpt><trkpt lat="44.8248313" lon="9.4973374"><ele>212.71428571428572</ele><time>2026-04-18T08:22:58.6Z</time></trkpt><trkpt lat="44.8248755" lon="9.497263"><ele>213.14285714285714</ele><time>2026-04-18T08:23:02.632Z</time></trkpt><trkpt lat="44.8249445" lon="9.4972405"><ele>213.57142857142858</ele><time>2026-04-18T08:23:06.617Z</time></trkpt><trkpt lat="44.8250106" lon="9.497241"><ele>214.0</ele><time>2026-04-18T08:23:12.638Z</time></trkpt><trkpt lat="44.8250752" lon="9.4972361"><ele>214.00000000000003</ele><time>2026-04-18T08:23:19.66Z</time></trkpt><trkpt lat="44.8251186" lon="9.497315"><ele>214.0</ele><time>2026-04-18T08:23:24.676Z</time></trkpt><trkpt lat="44.8251048" lon="9.497416"><ele>214.0</ele><time>2026-04-18T08:23:29.677Z</time></trkpt><trkpt lat="44.8251058" lon="9.4975121"><ele>214.0</ele><time>2026-04-18T08:23:34.679Z</time></trkpt><trkpt lat="44.8251376" lon="9.4976026"><ele>214.0</ele><time>2026-04-18T08:23:39.681Z</time></trkpt><trkpt lat="44.8251888" lon="9.4976709"><ele>214.00000000000003</ele><time>2026-04-18T08:23:45.6Z</time></trkpt><trkpt lat="44.8252507" lon="9.4977086"><ele>214.0</ele><time>2026-04-18T08:23:51.617Z</time></trkpt><trkpt lat="44.8253131" lon="9.4977367"><ele>216.2857142857143</ele><time>2026-04-18T08:23:56.618Z</time></trkpt><trkpt lat="44.8253756" lon="9.4977813"><ele>218.57142857142856</ele><time>2026-04-18T08:24:02.619Z</time></trkpt><trkpt lat="44.8254392" lon="9.4978288"><ele>220.85714285714283</ele><time>2026-04-18T08:24:08.62Z</time></trkpt><trkpt lat="44.8254985" lon="9.497868"><ele>223.14285714285714</ele><time>2026-04-18T08:24:14.579Z</time></trkpt><trkpt lat="44.82555" lon="9.4979328"><ele>225.42857142857142</ele><time>2026-04-18T08:24:20.637Z</time></trkpt><trkpt lat="44.8256097" lon="9.4979615"><ele>227.7142857142857</ele><time>2026-04-18T08:24:26.653Z</time></trkpt><trkpt lat="44.825674" lon="9.4980052"><ele>229.99999999999997</ele><time>2026-04-18T08:24:32.659Z</time></trkpt><trkpt lat="44.8257342" lon="9.4980445"><ele>230.4285714285714</ele><time>2026-04-18T08:24:37.666Z</time></trkpt><trkpt lat="44.8258052" lon="9.4980717"><ele>230.85714285714283</ele><time>2026-04-18T08:24:43.576Z</time></trkpt><trkpt lat="44.8258659" lon="9.4981177"><ele>231.28571428571428</ele><time>2026-04-18T08:24:49.578Z</time></trkpt><trkpt lat="44.8259321" lon="9.4981502"><ele>231.7142857142857</ele><time>2026-04-18T08:24:55.579Z</time></trkpt><trkpt lat="44.825993" lon="9.4982008"><ele>232.1428571428571</ele><time>2026-04-18T08:25:01.59Z</time></trkpt><trkpt lat="44.8260621" lon="9.498212"><ele>232.57142857142858</ele><time>2026-04-18T08:25:06.459Z</time></trkpt><trkpt lat="44.8261318" lon="9.4981993"><ele>233.0</ele><time>2026-04-18T08:25:12.601Z</time></trkpt><trkpt lat="44.8262047" lon="9.4981769"><ele>234.57142857142858</ele><time>2026-04-18T08:25:18.614Z</time></trkpt><trkpt lat="44.8262652" lon="9.498141"><ele>236.1428571428571</ele><time>2026-04-18T08:25:24.625Z</time></trkpt><trkpt lat="44.8263241" lon="9.4980897"><ele>237.7142857142857</ele><time>2026-04-18T08:25:30.626Z</time></trkpt><trkpt lat="44.8263923" lon="9.4980556"><ele>239.28571428571428</ele><time>2026-04-18T08:25:35.626Z</time></trkpt><trkpt lat="44.8264552" lon="9.498012"><ele>240.85714285714283</ele><time>2026-04-18T08:25:41.629Z</time></trkpt><trkpt lat="44.8265115" lon="9.4979521"><ele>242.4285714285714</ele><time>2026-04-18T08:25:47.63Z</time></trkpt><trkpt lat="44.8265681" lon="9.4978923"><ele>243.99999999999997</ele><time>2026-04-18T08:25:53.618Z</time></trkpt><trkpt lat="44.8266329" lon="9.4978431"><ele>243.99999999999997</ele><time>2026-04-18T08:25:59.632Z</time></trkpt><trkpt lat="44.826688" lon="9.497779"><ele>244.0</ele><time>2026-04-18T08:26:05.633Z</time></trkpt><trkpt lat="44.8267486" lon="9.4977382"><ele>243.99999999999997</ele><time>2026-04-18T08:26:11.639Z</time></trkpt><trkpt lat="44.8268035" lon="9.4976905"><ele>243.99999999999997</ele><time>2026-04-18T08:26:15.631Z</time></trkpt><trkpt lat="44.8268656" lon="9.4976643"><ele>244.0</ele><time>2026-04-18T08:26:20.592Z</time></trkpt><trkpt lat="44.826927" lon="9.49764"><ele>243.99999999999997</ele><time>2026-04-18T08:26:25.642Z</time></trkpt><trkpt lat="44.8269955" lon="9.4976214"><ele>243.99999999999997</ele><time>2026-04-18T08:26:31.642Z</time></trkpt><trkpt lat="44.8270681" lon="9.4976027"><ele>245.4285714285714</ele><time>2026-04-18T08:26:37.616Z</time></trkpt><trkpt lat="44.8271309" lon="9.4975758"><ele>246.85714285714283</ele><time>2026-04-18T08:26:42.645Z</time></trkpt><trkpt lat="44.827198" lon="9.497537"><ele>248.28571428571428</ele><time>2026-04-18T08:26:48.657Z</time></trkpt><trkpt lat="44.8272474" lon="9.4974811"><ele>249.7142857142857</ele><time>2026-04-18T08:26:53.571Z</time></trkpt><trkpt lat="44.8272891" lon="9.4973948"><ele>251.1428571428571</ele><time>2026-04-18T08:26:59.573Z</time></trkpt><trkpt lat="44.827329" lon="9.4973209"><ele>252.57142857142858</ele><time>2026-04-18T08:27:04.574Z</time></trkpt><trkpt lat="44.8273723" lon="9.4972494"><ele>254.0</ele><time>2026-04-18T08:27:09.552Z</time></trkpt><trkpt lat="44.8274285" lon="9.4971918"><ele>254.0</ele><time>2026-04-18T08:27:15.582Z</time></trkpt><trkpt lat="44.8274754" lon="9.4971312"><ele>254.0</ele><time>2026-04-18T08:27:20.994Z</time></trkpt><trkpt lat="44.8275352" lon="9.4970822"><ele>254.0</ele><time>2026-04-18T08:27:26.599Z</time></trkpt><trkpt lat="44.8275998" lon="9.4970481"><ele>254.0</ele><time>2026-04-18T08:27:31.609Z</time></trkpt><trkpt lat="44.8276704" lon="9.4970311"><ele>254.0</ele><time>2026-04-18T08:27:37.616Z</time></trkpt><trkpt lat="44.8277408" lon="9.4970095"><ele>254.0</ele><time>2026-04-18T08:27:43.626Z</time></trkpt><trkpt lat="44.8278031" lon="9.4969848"><ele>254.0</ele><time>2026-04-18T08:27:48.627Z</time></trkpt><trkpt lat="44.8278753" lon="9.496959"><ele>255.57142857142858</ele><time>2026-04-18T08:27:54.634Z</time></trkpt><trkpt lat="44.8279454" lon="9.4969255"><ele>257.1428571428571</ele><time>2026-04-18T08:28:00.635Z</time></trkpt><trkpt lat="44.828011" lon="9.4969099"><ele>258.71428571428567</ele><time>2026-04-18T08:28:05.636Z</time></trkpt><trkpt lat="44.8280779" lon="9.4969258"><ele>260.2857142857143</ele><time>2026-04-18T08:28:10.694Z</time></trkpt><trkpt lat="44.8281382" lon="9.496972"><ele>261.85714285714283</ele><time>2026-04-18T08:28:15.639Z</time></trkpt><trkpt lat="44.8281585" lon="9.497059"><ele>263.4285714285714</ele><time>2026-04-18T08:28:21.649Z</time></trkpt><trkpt lat="44.828196" lon="9.4971386"><ele>265.0</ele><time>2026-04-18T08:28:25.661Z</time></trkpt><trkpt lat="44.8282134" lon="9.4972289"><ele>265.2857142857143</ele><time>2026-04-18T08:28:29.587Z</time></trkpt><trkpt lat="44.8282394" lon="9.4973156"><ele>265.57142857142856</ele><time>2026-04-18T08:28:34.718Z</time></trkpt><trkpt lat="44.8282735" lon="9.4973954"><ele>265.8571428571429</ele><time>2026-04-18T08:28:41.65Z</time></trkpt><trkpt lat="44.8282868" lon="9.4974848"><ele>266.1428571428571</ele><time>2026-04-18T08:28:46.655Z</time></trkpt><trkpt lat="44.8282999" lon="9.4975908"><ele>266.42857142857144</ele><time>2026-04-18T08:28:52.678Z</time></trkpt><trkpt lat="44.8283059" lon="9.4976826"><ele>266.7142857142857</ele><time>2026-04-18T08:28:57.679Z</time></trkpt><trkpt lat="44.8283163" lon="9.4977766"><ele>267.0</ele><time>2026-04-18T08:29:02.637Z</time></trkpt><trkpt lat="44.8283384" lon="9.4978616"><ele>267.14285714285717</ele><time>2026-04-18T08:29:07.639Z</time></trkpt><trkpt lat="44.8283919" lon="9.4979289"><ele>267.2857142857143</ele><time>2026-04-18T08:29:13.657Z</time></trkpt><trkpt lat="44.8284494" lon="9.4979905"><ele>267.42857142857144</ele><time>2026-04-18T08:29:18.689Z</time></trkpt><trkpt lat="44.8285168" lon="9.4980236"><ele>267.57142857142856</ele><time>2026-04-18T08:29:23.689Z</time></trkpt><trkpt lat="44.8285679" lon="9.4980803"><ele>267.7142857142857</ele><time>2026-04-18T08:29:27.7Z</time></trkpt><trkpt lat="44.8286166" lon="9.4981383"><ele>267.8571428571429</ele><time>2026-04-18T08:29:32.616Z</time></trkpt><trkpt lat="44.8286901" lon="9.4981815"><ele>268.0</ele><time>2026-04-18T08:29:39.675Z</time></trkpt><trkpt lat="44.8287561" lon="9.4982167"><ele>268.42857142857144</ele><time>2026-04-18T08:29:44.678Z</time></trkpt><trkpt lat="44.8288299" lon="9.4982409"><ele>268.85714285714283</ele><time>2026-04-18T08:30:00.682Z</time></trkpt><trkpt lat="44.828893" lon="9.4982076"><ele>269.2857142857143</ele><time>2026-04-18T08:30:04.679Z</time></trkpt><trkpt lat="44.8289612" lon="9.4981818"><ele>269.7142857142857</ele><time>2026-04-18T08:30:09.588Z</time></trkpt><trkpt lat="44.829021" lon="9.4981325"><ele>270.14285714285717</ele><time>2026-04-18T08:30:14.589Z</time></trkpt><trkpt lat="44.8290788" lon="9.4980958"><ele>270.57142857142856</ele><time>2026-04-18T08:30:19.589Z</time></trkpt><trkpt lat="44.8291474" lon="9.4980716"><ele>271.0</ele><time>2026-04-18T08:30:25.69Z</time></trkpt><trkpt lat="44.829216" lon="9.4980378"><ele>271.0</ele><time>2026-04-18T08:30:31.605Z</time></trkpt><trkpt lat="44.8292717" lon="9.4979942"><ele>271.0</ele><time>2026-04-18T08:30:36.606Z</time></trkpt><trkpt lat="44.8293201" lon="9.4979323"><ele>271.0</ele><time>2026-04-18T08:30:41.618Z</time></trkpt><trkpt lat="44.8293812" lon="9.497876"><ele>271.0</ele><time>2026-04-18T08:30:46.617Z</time></trkpt><trkpt lat="44.8294493" lon="9.4978409"><ele>271.0</ele><time>2026-04-18T08:30:51.629Z</time></trkpt><trkpt lat="44.829512" lon="9.4978057"><ele>271.0</ele><time>2026-04-18T08:30:56.63Z</time></trkpt><trkpt lat="44.8295603" lon="9.4977455"><ele>271.0</ele><time>2026-04-18T08:31:01.657Z</time></trkpt><trkpt lat="44.8296208" lon="9.497703"><ele>272.57142857142856</ele><time>2026-04-18T08:31:07.656Z</time></trkpt><trkpt lat="44.8296884" lon="9.4976746"><ele>274.14285714285717</ele><time>2026-04-18T08:31:12.656Z</time></trkpt><trkpt lat="44.8297628" lon="9.4976368"><ele>275.7142857142857</ele><time>2026-04-18T08:31:18.579Z</time></trkpt><trkpt lat="44.8298248" lon="9.4975874"><ele>277.2857142857143</ele><time>2026-04-18T08:31:23.678Z</time></trkpt><trkpt lat="44.8298787" lon="9.497541"><ele>278.85714285714283</ele><time>2026-04-18T08:31:28.68Z</time></trkpt><trkpt lat="44.8299425" lon="9.4974937"><ele>280.42857142857144</ele><time>2026-04-18T08:31:34.678Z</time></trkpt><trkpt lat="44.8300021" lon="9.4974561"><ele>282.0</ele><time>2026-04-18T08:31:39.689Z</time></trkpt><trkpt lat="44.83006" lon="9.4974171"><ele>282.0</ele><time>2026-04-18T08:31:44.693Z</time></trkpt><trkpt lat="44.8301222" lon="9.497379"><ele>282.0</ele><time>2026-04-18T08:31:49.501Z</time></trkpt><trkpt lat="44.8301832" lon="9.4973238"><ele>282.0</ele><time>2026-04-18T08:31:55.635Z</time></trkpt><trkpt lat="44.830244" lon="9.4972863"><ele>282.0</ele><time>2026-04-18T08:32:00.661Z</time></trkpt><trkpt lat="44.8302918" lon="9.4972285"><ele>282.0</ele><time>2026-04-18T08:32:05.665Z</time></trkpt><trkpt lat="44.8303495" lon="9.4971786"><ele>282.0</ele><time>2026-04-18T08:32:11.672Z</time></trkpt><trkpt lat="44.8303909" lon="9.4971053"><ele>282.0</ele><time>2026-04-18T08:32:16.676Z</time></trkpt><trkpt lat="44.8304348" lon="9.4970262"><ele>284.0</ele><time>2026-04-18T08:32:21.678Z</time></trkpt><trkpt lat="44.8304645" lon="9.4969419"><ele>286.0</ele><time>2026-04-18T08:32:26.678Z</time></trkpt><trkpt lat="44.8304873" lon="9.4968521"><ele>288.0</ele><time>2026-04-18T08:32:32.597Z</time></trkpt><trkpt lat="44.8305013" lon="9.4967532"><ele>290.0</ele><time>2026-04-18T08:32:37.679Z</time></trkpt><trkpt lat="44.830507" lon="9.496653"><ele>292.0</ele><time>2026-04-18T08:32:42.679Z</time></trkpt><trkpt lat="44.8305319" lon="9.4965577"><ele>294.0</ele><time>2026-04-18T08:32:49.597Z</time></trkpt><trkpt lat="44.8305803" lon="9.4964747"><ele>296.0</ele><time>2026-04-18T08:32:55.679Z</time></trkpt><trkpt lat="44.8306474" lon="9.4964451"><ele>296.0</ele><time>2026-04-18T08:33:00.69Z</time></trkpt><trkpt lat="44.8307165" lon="9.4964498"><ele>296.0</ele><time>2026-04-18T08:33:05.698Z</time></trkpt><trkpt lat="44.8307917" lon="9.4964341"><ele>296.0</ele><time>2026-04-18T08:33:11.69Z</time></trkpt><trkpt lat="44.8308584" lon="9.4964217"><ele>296.0</ele><time>2026-04-18T08:33:16.691Z</time></trkpt><trkpt lat="44.8309285" lon="9.4964111"><ele>296.0</ele><time>2026-04-18T08:33:21.733Z</time></trkpt><trkpt lat="44.8309875" lon="9.4963595"><ele>296.0</ele><time>2026-04-18T08:33:27.626Z</time></trkpt><trkpt lat="44.8310426" lon="9.4963039"><ele>296.0</ele><time>2026-04-18T08:33:33.627Z</time></trkpt><trkpt lat="44.8311023" lon="9.4962493"><ele>297.42857142857144</ele><time>2026-04-18T08:33:39.642Z</time></trkpt><trkpt lat="44.8311705" lon="9.496211"><ele>298.85714285714283</ele><time>2026-04-18T08:33:45.603Z</time></trkpt><trkpt lat="44.8312394" lon="9.4961739"><ele>300.2857142857143</ele><time>2026-04-18T08:33:51.644Z</time></trkpt><trkpt lat="44.831307" lon="9.4961338"><ele>301.7142857142857</ele><time>2026-04-18T08:33:57.642Z</time></trkpt><trkpt lat="44.8313733" lon="9.4960902"><ele>303.14285714285717</ele><time>2026-04-18T08:34:03.626Z</time></trkpt><trkpt lat="44.8314376" lon="9.4960576"><ele>304.57142857142856</ele><time>2026-04-18T08:34:09.653Z</time></trkpt><trkpt lat="44.8315021" lon="9.4960238"><ele>306.0</ele><time>2026-04-18T08:34:14.653Z</time></trkpt><trkpt lat="44.8315639" lon="9.4959944"><ele>306.0</ele><time>2026-04-18T08:34:19.654Z</time></trkpt><trkpt lat="44.8316313" lon="9.4959557"><ele>306.0</ele><time>2026-04-18T08:34:25.654Z</time></trkpt><trkpt lat="44.8316977" lon="9.4959326"><ele>306.0</ele><time>2026-04-18T08:34:31.654Z</time></trkpt><trkpt lat="44.8317664" lon="9.4959108"><ele>306.0</ele><time>2026-04-18T08:34:40.654Z</time></trkpt><trkpt lat="44.8318289" lon="9.4958721"><ele>306.0</ele><time>2026-04-18T08:34:47.659Z</time></trkpt><trkpt lat="44.8318962" lon="9.4958297"><ele>306.0</ele><time>2026-04-18T08:34:53.658Z</time></trkpt><trkpt lat="44.8319608" lon="9.4957876"><ele>306.0</ele><time>2026-04-18T08:34:59.659Z</time></trkpt><trkpt lat="44.8320157" lon="9.495735"><ele>307.57142857142856</ele><time>2026-04-18T08:35:04.66Z</time></trkpt><trkpt lat="44.8320751" lon="9.4956759"><ele>309.14285714285717</ele><time>2026-04-18T08:35:10.659Z</time></trkpt><trkpt lat="44.8321331" lon="9.4956284"><ele>310.7142857142857</ele><time>2026-04-18T08:35:16.56Z</time></trkpt><trkpt lat="44.8321894" lon="9.495583"><ele>312.2857142857143</ele><time>2026-04-18T08:35:21.567Z</time></trkpt><trkpt lat="44.8322459" lon="9.4955295"><ele>313.85714285714283</ele><time>2026-04-18T08:35:27.659Z</time></trkpt><trkpt lat="44.8323003" lon="9.495455"><ele>315.42857142857144</ele><time>2026-04-18T08:35:33.66Z</time></trkpt><trkpt lat="44.8323598" lon="9.4954106"><ele>317.0</ele><time>2026-04-18T08:35:40.66Z</time></trkpt><trkpt lat="44.8324" lon="9.4953283"><ele>317.2857142857143</ele><time>2026-04-18T08:37:10.403Z</time></trkpt><trkpt lat="44.832445" lon="9.49525"><ele>317.57142857142856</ele><time>2026-04-18T08:37:17.643Z</time></trkpt><trkpt lat="44.8325213" lon="9.4952295"><ele>317.8571428571429</ele><time>2026-04-18T08:37:23.676Z</time></trkpt><trkpt lat="44.8325938" lon="9.4952137"><ele>318.1428571428571</ele><time>2026-04-18T08:37:29.667Z</time></trkpt><trkpt lat="44.8326594" lon="9.4952281"><ele>318.4285714285714</ele><time>2026-04-18T08:37:34.614Z</time></trkpt><trkpt lat="44.8327295" lon="9.4952627"><ele>318.7142857142857</ele><time>2026-04-18T08:37:40.643Z</time></trkpt><trkpt lat="44.8327925" lon="9.4952902"><ele>319.0</ele><time>2026-04-18T08:37:45.643Z</time></trkpt><trkpt lat="44.8328547" lon="9.4953272"><ele>320.5714285714286</ele><time>2026-04-18T08:37:51.644Z</time></trkpt><trkpt lat="44.8329202" lon="9.4953406"><ele>322.1428571428571</ele><time>2026-04-18T08:37:57.643Z</time></trkpt><trkpt lat="44.8329885" lon="9.4953285"><ele>323.7142857142857</ele><time>2026-04-18T08:38:04.647Z</time></trkpt><trkpt lat="44.8330589" lon="9.4953057"><ele>325.28571428571433</ele><time>2026-04-18T08:38:09.647Z</time></trkpt><trkpt lat="44.8331185" lon="9.4952619"><ele>326.8571428571429</ele><time>2026-04-18T08:38:14.648Z</time></trkpt><trkpt lat="44.8331715" lon="9.4952042"><ele>328.42857142857144</ele><time>2026-04-18T08:38:20.55Z</time></trkpt><trkpt lat="44.8332311" lon="9.4951536"><ele>330.0</ele><time>2026-04-18T08:38:26.55Z</time></trkpt><trkpt lat="44.8332969" lon="9.4951293"><ele>330.00000000000006</ele><time>2026-04-18T08:38:31.65Z</time></trkpt><trkpt lat="44.8333662" lon="9.4950931"><ele>330.0</ele><time>2026-04-18T08:38:37.654Z</time></trkpt><trkpt lat="44.8334326" lon="9.4950498"><ele>330.0</ele><time>2026-04-18T08:38:43.634Z</time></trkpt><trkpt lat="44.8334858" lon="9.494984"><ele>330.0</ele><time>2026-04-18T08:38:49.659Z</time></trkpt><trkpt lat="44.8335363" lon="9.4949093"><ele>330.0</ele><time>2026-04-18T08:38:54.659Z</time></trkpt><trkpt lat="44.8335766" lon="9.4948406"><ele>330.00000000000006</ele><time>2026-04-18T08:38:59.675Z</time></trkpt><trkpt lat="44.8336021" lon="9.4947542"><ele>330.0</ele><time>2026-04-18T08:39:05.644Z</time></trkpt><trkpt lat="44.8336383" lon="9.4946646"><ele>331.7142857142857</ele><time>2026-04-18T08:39:11.643Z</time></trkpt><trkpt lat="44.8336754" lon="9.4945848"><ele>333.42857142857144</ele><time>2026-04-18T08:39:16.644Z</time></trkpt><trkpt lat="44.8337075" lon="9.4945054"><ele>335.1428571428571</ele><time>2026-04-18T08:39:21.707Z</time></trkpt><trkpt lat="44.8337412" lon="9.4944235"><ele>336.8571428571429</ele><time>2026-04-18T08:39:26.643Z</time></trkpt><trkpt lat="44.8337856" lon="9.4943553"><ele>338.57142857142856</ele><time>2026-04-18T08:39:31.644Z</time></trkpt><trkpt lat="44.8338372" lon="9.4942949"><ele>340.2857142857143</ele><time>2026-04-18T08:39:36.643Z</time></trkpt><trkpt lat="44.8338983" lon="9.4942505"><ele>342.0</ele><time>2026-04-18T08:39:43.643Z</time></trkpt><trkpt lat="44.8339641" lon="9.4942053"><ele>341.99999999999994</ele><time>2026-04-18T08:39:49.653Z</time></trkpt><trkpt lat="44.8340308" lon="9.4941878"><ele>342.0</ele><time>2026-04-18T08:39:55.644Z</time></trkpt><trkpt lat="44.8341022" lon="9.4941608"><ele>342.0</ele><time>2026-04-18T08:40:01.674Z</time></trkpt><trkpt lat="44.8341561" lon="9.4941019"><ele>342.0</ele><time>2026-04-18T08:40:07.643Z</time></trkpt><trkpt lat="44.8341753" lon="9.4940121"><ele>342.0</ele><time>2026-04-18T08:40:13.644Z</time></trkpt><trkpt lat="44.8342014" lon="9.4939219"><ele>341.99999999999994</ele><time>2026-04-18T08:40:18.644Z</time></trkpt><trkpt lat="44.8341838" lon="9.4938365"><ele>342.0</ele><time>2026-04-18T08:40:23.579Z</time></trkpt><trkpt lat="44.8341787" lon="9.4937449"><ele>344.1666666666667</ele><time>2026-04-18T08:40:29.644Z</time></trkpt><trkpt lat="44.8341999" lon="9.4936609"><ele>346.3333333333333</ele><time>2026-04-18T08:40:34.643Z</time></trkpt><trkpt lat="44.8341912" lon="9.4935631"><ele>348.5</ele><time>2026-04-18T08:40:42.581Z</time></trkpt><trkpt lat="44.8341578" lon="9.4934721"><ele>350.66666666666663</ele><time>2026-04-18T08:40:48.644Z</time></trkpt><trkpt lat="44.8342155" lon="9.4934025"><ele>352.8333333333333</ele><time>2026-04-18T08:41:30.643Z</time></trkpt><trkpt lat="44.8342385" lon="9.4933123"><ele>355.0</ele><time>2026-04-18T08:41:39.643Z</time></trkpt><trkpt lat="44.8342947" lon="9.4931915"><ele>356.0</ele><time>2026-04-18T08:42:36.554Z</time></trkpt><trkpt lat="44.8343151" lon="9.4931044"><ele>357.0</ele><time>2026-04-18T08:42:39.734Z</time></trkpt><trkpt lat="44.8343393" lon="9.4930191"><ele>358.0</ele><time>2026-04-18T08:42:45.625Z</time></trkpt><trkpt lat="44.834342" lon="9.4929293"><ele>359.0</ele><time>2026-04-18T08:42:52.626Z</time></trkpt><trkpt lat="44.8343684" lon="9.492848"><ele>360.0</ele><time>2026-04-18T08:43:00.607Z</time></trkpt><trkpt lat="44.8343876" lon="9.4927582"><ele>361.0</ele><time>2026-04-18T08:43:08.473Z</time></trkpt><trkpt lat="44.8344199" lon="9.4926739"><ele>362.0</ele><time>2026-04-18T08:43:17.645Z</time></trkpt><trkpt lat="44.8344412" lon="9.4925803"><ele>363.7142857142857</ele><time>2026-04-18T08:43:26.646Z</time></trkpt><trkpt lat="44.8344685" lon="9.4924942"><ele>365.42857142857144</ele><time>2026-04-18T08:43:36.673Z</time></trkpt><trkpt lat="44.8345019" lon="9.4924171"><ele>367.1428571428571</ele><time>2026-04-18T08:43:45.605Z</time></trkpt><trkpt lat="44.8345012" lon="9.4923244"><ele>368.8571428571429</ele><time>2026-04-18T08:43:58.686Z</time></trkpt><trkpt lat="44.8345154" lon="9.4922316"><ele>370.5714285714286</ele><time>2026-04-18T08:44:08.646Z</time></trkpt><trkpt lat="44.8345587" lon="9.4921011"><ele>372.2857142857143</ele><time>2026-04-18T08:44:33.604Z</time></trkpt><trkpt lat="44.834592" lon="9.4920127"><ele>374.0</ele><time>2026-04-18T08:44:41.645Z</time></trkpt><trkpt lat="44.8346177" lon="9.4919109"><ele>376.1428571428571</ele><time>2026-04-18T08:45:08.644Z</time></trkpt><trkpt lat="44.8346411" lon="9.4918208"><ele>378.28571428571433</ele><time>2026-04-18T08:45:15.604Z</time></trkpt><trkpt lat="44.8346664" lon="9.4917308"><ele>380.42857142857144</ele><time>2026-04-18T08:45:24.603Z</time></trkpt><trkpt lat="44.8346841" lon="9.4916356"><ele>382.57142857142856</ele><time>2026-04-18T08:45:40.683Z</time></trkpt><trkpt lat="44.8346962" lon="9.4915455"><ele>384.71428571428567</ele><time>2026-04-18T08:45:48.581Z</time></trkpt><trkpt lat="44.8347033" lon="9.4914484"><ele>386.8571428571429</ele><time>2026-04-18T08:45:58.683Z</time></trkpt><trkpt lat="44.8347219" lon="9.491356"><ele>389.0</ele><time>2026-04-18T08:46:07.683Z</time></trkpt><trkpt lat="44.8347357" lon="9.4912595"><ele>391.14285714285717</ele><time>2026-04-18T08:46:15.603Z</time></trkpt><trkpt lat="44.834751" lon="9.4911686"><ele>393.2857142857143</ele><time>2026-04-18T08:46:25.683Z</time></trkpt><trkpt lat="44.8347508" lon="9.491074"><ele>395.42857142857144</ele><time>2026-04-18T08:46:35.642Z</time></trkpt><trkpt lat="44.8347099" lon="9.4910002"><ele>397.57142857142856</ele><time>2026-04-18T08:46:54.602Z</time></trkpt><trkpt lat="44.8347082" lon="9.490908"><ele>399.71428571428567</ele><time>2026-04-18T08:47:03.601Z</time></trkpt><trkpt lat="44.834723" lon="9.4908076"><ele>401.85714285714283</ele><time>2026-04-18T08:47:12.601Z</time></trkpt><trkpt lat="44.834726" lon="9.4907121"><ele>404.0</ele><time>2026-04-18T08:47:21.601Z</time></trkpt><trkpt lat="44.8347518" lon="9.4906218"><ele>404.0</ele><time>2026-04-18T08:47:30.6Z</time></trkpt><trkpt lat="44.8347618" lon="9.4905198"><ele>404.0</ele><time>2026-04-18T08:47:37.698Z</time></trkpt><trkpt lat="44.8347802" lon="9.4904199"><ele>404.0</ele><time>2026-04-18T08:47:46.296Z</time></trkpt><trkpt lat="44.8347828" lon="9.4903271"><ele>404.0</ele><time>2026-04-18T08:47:54.599Z</time></trkpt><trkpt lat="44.8347802" lon="9.4902331"><ele>404.0</ele><time>2026-04-18T08:48:03.599Z</time></trkpt><trkpt lat="44.8347823" lon="9.4901405"><ele>404.0</ele><time>2026-04-18T08:48:27.6Z</time></trkpt><trkpt lat="44.8347829" lon="9.490043"><ele>404.0</ele><time>2026-04-18T08:48:36.616Z</time></trkpt><trkpt lat="44.8348012" lon="9.4899567"><ele>405.85714285714283</ele><time>2026-04-18T08:48:46.643Z</time></trkpt><trkpt lat="44.8348102" lon="9.4898664"><ele>407.71428571428567</ele><time>2026-04-18T08:48:55.647Z</time></trkpt><trkpt lat="44.834827" lon="9.4897732"><ele>409.57142857142856</ele><time>2026-04-18T08:49:02.647Z</time></trkpt><trkpt lat="44.834846" lon="9.4896847"><ele>411.42857142857144</ele><time>2026-04-18T08:49:10.671Z</time></trkpt><trkpt lat="44.8348791" lon="9.4895901"><ele>413.2857142857143</ele><time>2026-04-18T08:49:28.703Z</time></trkpt><trkpt lat="44.834882" lon="9.4894915"><ele>415.14285714285717</ele><time>2026-04-18T08:49:36.564Z</time></trkpt><trkpt lat="44.8348817" lon="9.4893975"><ele>417.0</ele><time>2026-04-18T08:49:47.722Z</time></trkpt><trkpt lat="44.8349013" lon="9.489302"><ele>419.2857142857143</ele><time>2026-04-18T08:49:58.522Z</time></trkpt><trkpt lat="44.8349143" lon="9.4892103"><ele>421.57142857142856</ele><time>2026-04-18T08:50:08.65Z</time></trkpt><trkpt lat="44.8349109" lon="9.4891216"><ele>423.85714285714283</ele><time>2026-04-18T08:50:31.502Z</time></trkpt><trkpt lat="44.8349061" lon="9.489031"><ele>426.1428571428571</ele><time>2026-04-18T08:50:39.521Z</time></trkpt><trkpt lat="44.8349168" lon="9.4889365"><ele>428.42857142857144</ele><time>2026-04-18T08:50:47.639Z</time></trkpt><trkpt lat="44.8349219" lon="9.4888412"><ele>430.71428571428567</ele><time>2026-04-18T08:50:58.679Z</time></trkpt><trkpt lat="44.8349323" lon="9.48875"><ele>433.0</ele><time>2026-04-18T08:51:08.638Z</time></trkpt><trkpt lat="44.8349256" lon="9.4886602"><ele>435.2857142857142</ele><time>2026-04-18T08:51:18.598Z</time></trkpt><trkpt lat="44.8349108" lon="9.4885696"><ele>437.57142857142856</ele><time>2026-04-18T08:51:28.678Z</time></trkpt><trkpt lat="44.834893" lon="9.4884813"><ele>439.85714285714283</ele><time>2026-04-18T08:51:38.637Z</time></trkpt><trkpt lat="44.8348628" lon="9.4883954"><ele>442.1428571428571</ele><time>2026-04-18T08:51:52.678Z</time></trkpt><trkpt lat="44.8348403" lon="9.4883084"><ele>444.4285714285714</ele><time>2026-04-18T08:52:01.677Z</time></trkpt><trkpt lat="44.8347865" lon="9.4882475"><ele>446.71428571428567</ele><time>2026-04-18T08:52:09.596Z</time></trkpt><trkpt lat="44.8347804" lon="9.4881497"><ele>449.0</ele><time>2026-04-18T08:52:17.636Z</time></trkpt><trkpt lat="44.8347518" lon="9.4880627"><ele>449.0</ele><time>2026-04-18T08:52:25.529Z</time></trkpt><trkpt lat="44.834729" lon="9.4879796"><ele>448.99999999999994</ele><time>2026-04-18T08:52:33.629Z</time></trkpt><trkpt lat="44.8347216" lon="9.4878846"><ele>449.0</ele><time>2026-04-18T08:52:43.675Z</time></trkpt><trkpt lat="44.8347027" lon="9.4877914"><ele>449.0</ele><time>2026-04-18T08:52:52.707Z</time></trkpt><trkpt lat="44.8346915" lon="9.4876931"><ele>448.99999999999994</ele><time>2026-04-18T08:53:01.427Z</time></trkpt><trkpt lat="44.8347245" lon="9.4875761"><ele>449.0</ele><time>2026-04-18T08:53:46.673Z</time></trkpt><trkpt lat="44.8347541" lon="9.4874916"><ele>449.0</ele><time>2026-04-18T08:53:55.704Z</time></trkpt><trkpt lat="44.8347872" lon="9.4874127"><ele>450.57142857142856</ele><time>2026-04-18T08:54:03.712Z</time></trkpt><trkpt lat="44.8348354" lon="9.4873391"><ele>452.1428571428571</ele><time>2026-04-18T08:54:11.632Z</time></trkpt><trkpt lat="44.8348835" lon="9.4872712"><ele>453.71428571428567</ele><time>2026-04-18T08:54:20.631Z</time></trkpt><trkpt lat="44.834917" lon="9.4871852"><ele>455.2857142857142</ele><time>2026-04-18T08:54:30.582Z</time></trkpt><trkpt lat="44.8349399" lon="9.4870998"><ele>456.85714285714283</ele><time>2026-04-18T08:54:38.701Z</time></trkpt><trkpt lat="44.8349617" lon="9.4870101"><ele>458.42857142857133</ele><time>2026-04-18T08:54:48.59Z</time></trkpt><trkpt lat="44.8349866" lon="9.4869205"><ele>459.99999999999994</ele><time>2026-04-18T08:55:00.709Z</time></trkpt><trkpt lat="44.8350108" lon="9.4868313"><ele>461.8571428571428</ele><time>2026-04-18T08:55:10.492Z</time></trkpt><trkpt lat="44.8350251" lon="9.4867381"><ele>463.71428571428567</ele><time>2026-04-18T08:55:23.626Z</time></trkpt><trkpt lat="44.8350406" lon="9.486645"><ele>465.57142857142856</ele><time>2026-04-18T08:56:05.623Z</time></trkpt><trkpt lat="44.8350637" lon="9.4865617"><ele>467.4285714285714</ele><time>2026-04-18T08:56:11.623Z</time></trkpt><trkpt lat="44.835082" lon="9.4864656"><ele>469.2857142857142</ele><time>2026-04-18T08:56:19.662Z</time></trkpt><trkpt lat="44.8351091" lon="9.4863776"><ele>471.14285714285717</ele><time>2026-04-18T08:56:27.606Z</time></trkpt><trkpt lat="44.8351314" lon="9.4862869"><ele>473.0</ele><time>2026-04-18T08:56:37.565Z</time></trkpt><trkpt lat="44.8351523" lon="9.486202"><ele>475.57142857142856</ele><time>2026-04-18T08:56:46.662Z</time></trkpt><trkpt lat="44.8351788" lon="9.4861195"><ele>478.1428571428571</ele><time>2026-04-18T08:56:58.663Z</time></trkpt><trkpt lat="44.8352012" lon="9.4860038"><ele>480.71428571428567</ele><time>2026-04-18T08:58:44.613Z</time></trkpt><trkpt lat="44.8352387" lon="9.4859258"><ele>483.2857142857143</ele><time>2026-04-18T08:58:51.693Z</time></trkpt><trkpt lat="44.8352681" lon="9.4858441"><ele>485.8571428571428</ele><time>2026-04-18T08:59:00.691Z</time></trkpt><trkpt lat="44.8352963" lon="9.4857625"><ele>488.4285714285714</ele><time>2026-04-18T08:59:08.612Z</time></trkpt><trkpt lat="44.8353277" lon="9.4856764"><ele>491.0</ele><time>2026-04-18T08:59:19.65Z</time></trkpt><trkpt lat="44.8353505" lon="9.4855908"><ele>491.0</ele><time>2026-04-18T08:59:37.649Z</time></trkpt><trkpt lat="44.8353899" lon="9.4855135"><ele>490.99999999999994</ele><time>2026-04-18T08:59:45.569Z</time></trkpt><trkpt lat="44.8354163" lon="9.4854316"><ele>491.0</ele><time>2026-04-18T08:59:57.689Z</time></trkpt><trkpt lat="44.8354482" lon="9.4853389"><ele>491.0</ele><time>2026-04-18T09:00:04.61Z</time></trkpt><trkpt lat="44.8354804" lon="9.48526"><ele>490.99999999999994</ele><time>2026-04-18T09:00:14.608Z</time></trkpt><trkpt lat="44.8355249" lon="9.4851873"><ele>491.0</ele><time>2026-04-18T09:00:22.647Z</time></trkpt><trkpt lat="44.8355527" lon="9.4850967"><ele>491.0</ele><time>2026-04-18T09:00:45.565Z</time></trkpt><trkpt lat="44.835591" lon="9.4850241"><ele>492.85714285714283</ele><time>2026-04-18T09:00:53.606Z</time></trkpt><trkpt lat="44.8356114" lon="9.4849209"><ele>494.71428571428567</ele><time>2026-04-18T09:01:08.746Z</time></trkpt><trkpt lat="44.8356188" lon="9.4848317"><ele>496.57142857142856</ele><time>2026-04-18T09:01:15.688Z</time></trkpt><trkpt lat="44.8356294" lon="9.4847387"><ele>498.42857142857144</ele><time>2026-04-18T09:01:22.706Z</time></trkpt><trkpt lat="44.8356339" lon="9.484646"><ele>500.2857142857143</ele><time>2026-04-18T09:01:31.643Z</time></trkpt><trkpt lat="44.8356464" lon="9.4845581"><ele>502.1428571428571</ele><time>2026-04-18T09:01:39.626Z</time></trkpt><trkpt lat="44.835698" lon="9.4845007"><ele>504.0</ele><time>2026-04-18T09:01:46.605Z</time></trkpt><trkpt lat="44.8357536" lon="9.4844363"><ele>505.1428571428571</ele><time>2026-04-18T09:01:54.745Z</time></trkpt><trkpt lat="44.835811" lon="9.4843761"><ele>506.2857142857143</ele><time>2026-04-18T09:02:02.601Z</time></trkpt><trkpt lat="44.8358732" lon="9.484335"><ele>507.42857142857144</ele><time>2026-04-18T09:02:09.603Z</time></trkpt><trkpt lat="44.8359303" lon="9.4842947"><ele>508.57142857142856</ele><time>2026-04-18T09:02:16.243Z</time></trkpt><trkpt lat="44.8359849" lon="9.4842431"><ele>509.71428571428567</ele><time>2026-04-18T09:02:23.6Z</time></trkpt><trkpt lat="44.8360336" lon="9.4841775"><ele>510.85714285714283</ele><time>2026-04-18T09:02:29.6Z</time></trkpt><trkpt lat="44.8360721" lon="9.4841055"><ele>512.0</ele><time>2026-04-18T09:02:36.702Z</time></trkpt><trkpt lat="44.8361119" lon="9.4840294"><ele>512.7142857142857</ele><time>2026-04-18T09:02:43.641Z</time></trkpt><trkpt lat="44.8361771" lon="9.4839913"><ele>513.4285714285713</ele><time>2026-04-18T09:02:51.679Z</time></trkpt><trkpt lat="44.8362426" lon="9.4839646"><ele>514.1428571428571</ele><time>2026-04-18T09:02:58.637Z</time></trkpt><trkpt lat="44.8362961" lon="9.4839144"><ele>514.8571428571429</ele><time>2026-04-18T09:03:04.637Z</time></trkpt><trkpt lat="44.8363157" lon="9.4838201"><ele>515.5714285714287</ele><time>2026-04-18T09:03:11.597Z</time></trkpt><trkpt lat="44.836308" lon="9.4837197"><ele>516.2857142857143</ele><time>2026-04-18T09:03:18.569Z</time></trkpt><trkpt lat="44.8363407" lon="9.4836285"><ele>517.0</ele><time>2026-04-18T09:03:25.748Z</time></trkpt><trkpt lat="44.8363931" lon="9.4835658"><ele>518.2857142857143</ele><time>2026-04-18T09:03:46.63Z</time></trkpt><trkpt lat="44.8364498" lon="9.4835218"><ele>519.5714285714287</ele><time>2026-04-18T09:03:51.636Z</time></trkpt><trkpt lat="44.836507" lon="9.4834557"><ele>520.8571428571429</ele><time>2026-04-18T09:03:58.592Z</time></trkpt><trkpt lat="44.8365686" lon="9.4834149"><ele>522.1428571428571</ele><time>2026-04-18T09:04:04.636Z</time></trkpt><trkpt lat="44.8366079" lon="9.4833298"><ele>523.4285714285713</ele><time>2026-04-18T09:04:11.637Z</time></trkpt><trkpt lat="44.8366661" lon="9.4832753"><ele>524.7142857142857</ele><time>2026-04-18T09:04:19.616Z</time></trkpt><trkpt lat="44.8367196" lon="9.4832155"><ele>526.0</ele><time>2026-04-18T09:04:26.657Z</time></trkpt><trkpt lat="44.8367752" lon="9.4831691"><ele>525.8571428571429</ele><time>2026-04-18T09:04:33.617Z</time></trkpt><trkpt lat="44.836837" lon="9.4831267"><ele>525.7142857142857</ele><time>2026-04-18T09:04:39.617Z</time></trkpt><trkpt lat="44.8369013" lon="9.4830923"><ele>525.5714285714286</ele><time>2026-04-18T09:04:45.694Z</time></trkpt><trkpt lat="44.8369498" lon="9.483035"><ele>525.4285714285714</ele><time>2026-04-18T09:04:51.737Z</time></trkpt><trkpt lat="44.8370015" lon="9.4829795"><ele>525.2857142857142</ele><time>2026-04-18T09:04:57.617Z</time></trkpt><trkpt lat="44.8370515" lon="9.4829197"><ele>525.1428571428571</ele><time>2026-04-18T09:05:03.616Z</time></trkpt><trkpt lat="44.837108" lon="9.482878"><ele>525.0</ele><time>2026-04-18T09:05:10.696Z</time></trkpt><trkpt lat="44.8371642" lon="9.4828266"><ele>526.5714285714286</ele><time>2026-04-18T09:05:16.683Z</time></trkpt><trkpt lat="44.8372172" lon="9.4827759"><ele>528.1428571428571</ele><time>2026-04-18T09:05:22.696Z</time></trkpt><trkpt lat="44.8372764" lon="9.4827224"><ele>529.7142857142858</ele><time>2026-04-18T09:05:29.682Z</time></trkpt><trkpt lat="44.8373219" lon="9.4826426"><ele>531.2857142857142</ele><time>2026-04-18T09:05:37.694Z</time></trkpt><trkpt lat="44.8373698" lon="9.4825835"><ele>532.8571428571429</ele><time>2026-04-18T09:05:43.662Z</time></trkpt><trkpt lat="44.8374295" lon="9.4825382"><ele>534.4285714285714</ele><time>2026-04-18T09:05:52.694Z</time></trkpt><trkpt lat="44.8374882" lon="9.4825043"><ele>536.0</ele><time>2026-04-18T09:06:00.734Z</time></trkpt><trkpt lat="44.8375549" lon="9.4825041"><ele>536.0</ele><time>2026-04-18T09:06:12.613Z</time></trkpt><trkpt lat="44.8376166" lon="9.4825274"><ele>536.0</ele><time>2026-04-18T09:06:23.653Z</time></trkpt><trkpt lat="44.837682" lon="9.4825488"><ele>536.0</ele><time>2026-04-18T09:06:31.692Z</time></trkpt><trkpt lat="44.8377495" lon="9.4825621"><ele>536.0</ele><time>2026-04-18T09:06:42.611Z</time></trkpt><trkpt lat="44.8377815" lon="9.4824799"><ele>536.0</ele><time>2026-04-18T09:07:23.692Z</time></trkpt><trkpt lat="44.8378437" lon="9.4824532"><ele>536.0</ele><time>2026-04-18T09:07:31.711Z</time></trkpt><trkpt lat="44.8378918" lon="9.4823949"><ele>536.0</ele><time>2026-04-18T09:07:39.671Z</time></trkpt><trkpt lat="44.8379321" lon="9.4823266"><ele>537.1428571428571</ele><time>2026-04-18T09:07:46.63Z</time></trkpt><trkpt lat="44.8379882" lon="9.4822804"><ele>538.2857142857142</ele><time>2026-04-18T09:07:53.748Z</time></trkpt><trkpt lat="44.8380527" lon="9.4822701"><ele>539.4285714285713</ele><time>2026-04-18T09:08:00.67Z</time></trkpt><trkpt lat="44.8381178" lon="9.4822383"><ele>540.5714285714286</ele><time>2026-04-18T09:08:11.709Z</time></trkpt><trkpt lat="44.8381772" lon="9.4821972"><ele>541.7142857142857</ele><time>2026-04-18T09:08:25.629Z</time></trkpt><trkpt lat="44.8382417" lon="9.4821625"><ele>542.8571428571428</ele><time>2026-04-18T09:08:38.708Z</time></trkpt><trkpt lat="44.8382842" lon="9.482094"><ele>544.0</ele><time>2026-04-18T09:08:48.667Z</time></trkpt><trkpt lat="44.8383473" lon="9.4820589"><ele>545.1428571428571</ele><time>2026-04-18T09:08:58.747Z</time></trkpt><trkpt lat="44.8384096" lon="9.4820032"><ele>546.2857142857142</ele><time>2026-04-18T09:09:07.593Z</time></trkpt><trkpt lat="44.8384667" lon="9.4819603"><ele>547.4285714285714</ele><time>2026-04-18T09:09:15.665Z</time></trkpt><trkpt lat="44.8385339" lon="9.4819254"><ele>548.5714285714286</ele><time>2026-04-18T09:09:25.633Z</time></trkpt><trkpt lat="44.8385963" lon="9.4818958"><ele>549.7142857142858</ele><time>2026-04-18T09:09:33.664Z</time></trkpt><trkpt lat="44.8386587" lon="9.4818535"><ele>550.8571428571429</ele><time>2026-04-18T09:09:42.663Z</time></trkpt><trkpt lat="44.8387231" lon="9.4818368"><ele>552.0</ele><time>2026-04-18T09:09:49.623Z</time></trkpt><trkpt lat="44.8387953" lon="9.4818145"><ele>553.5714285714286</ele><time>2026-04-18T09:12:08.693Z</time></trkpt><trkpt lat="44.8388578" lon="9.4817937"><ele>555.1428571428572</ele><time>2026-04-18T09:12:15.01Z</time></trkpt><trkpt lat="44.8389298" lon="9.4817916"><ele>556.7142857142858</ele><time>2026-04-18T09:12:22.733Z</time></trkpt><trkpt lat="44.838993" lon="9.4818012"><ele>558.2857142857143</ele><time>2026-04-18T09:12:30.652Z</time></trkpt><trkpt lat="44.8390571" lon="9.4818186"><ele>559.8571428571429</ele><time>2026-04-18T09:12:37.612Z</time></trkpt><trkpt lat="44.8391321" lon="9.4818349"><ele>561.4285714285714</ele><time>2026-04-18T09:12:44.649Z</time></trkpt><trkpt lat="44.8391948" lon="9.4818209"><ele>563.0</ele><time>2026-04-18T09:12:51.651Z</time></trkpt><trkpt lat="44.8392582" lon="9.4817884"><ele>563.2857142857142</ele><time>2026-04-18T09:12:57.65Z</time></trkpt><trkpt lat="44.8393207" lon="9.4817691"><ele>563.5714285714286</ele><time>2026-04-18T09:13:03.65Z</time></trkpt><trkpt lat="44.8393861" lon="9.4817493"><ele>563.8571428571429</ele><time>2026-04-18T09:13:10.577Z</time></trkpt><trkpt lat="44.8394498" lon="9.4817444"><ele>564.1428571428571</ele><time>2026-04-18T09:13:17.689Z</time></trkpt><trkpt lat="44.8395184" lon="9.4817181"><ele>564.4285714285714</ele><time>2026-04-18T09:13:24.648Z</time></trkpt><trkpt lat="44.8395817" lon="9.4816879"><ele>564.7142857142857</ele><time>2026-04-18T09:13:30.648Z</time></trkpt><trkpt lat="44.8396446" lon="9.481653"><ele>565.0</ele><time>2026-04-18T09:13:37.726Z</time></trkpt><trkpt lat="44.8396876" lon="9.4815769"><ele>564.9999999999999</ele><time>2026-04-18T09:13:47.685Z</time></trkpt><trkpt lat="44.8397292" lon="9.4815038"><ele>565.0</ele><time>2026-04-18T09:13:56.686Z</time></trkpt><trkpt lat="44.839779" lon="9.4814434"><ele>565.0</ele><time>2026-04-18T09:14:04.604Z</time></trkpt><trkpt lat="44.8398157" lon="9.4813694"><ele>565.0</ele><time>2026-04-18T09:14:13.724Z</time></trkpt><trkpt lat="44.8398598" lon="9.4813035"><ele>565.0</ele><time>2026-04-18T09:14:23.683Z</time></trkpt><trkpt lat="44.8398652" lon="9.4812085"><ele>564.9999999999999</ele><time>2026-04-18T09:14:35.682Z</time></trkpt><trkpt lat="44.8398793" lon="9.4811163"><ele>565.0</ele><time>2026-04-18T09:14:53.681Z</time></trkpt><trkpt lat="44.8399332" lon="9.4810693"><ele>568.1428571428571</ele><time>2026-04-18T09:15:07.72Z</time></trkpt><trkpt lat="44.8399361" lon="9.4809791"><ele>571.2857142857142</ele><time>2026-04-18T09:15:26.716Z</time></trkpt><trkpt lat="44.8399275" lon="9.480887"><ele>574.4285714285714</ele><time>2026-04-18T09:15:40.594Z</time></trkpt><trkpt lat="44.8399269" lon="9.4807933"><ele>577.5714285714286</ele><time>2026-04-18T09:15:56.675Z</time></trkpt><trkpt lat="44.8398792" lon="9.4807352"><ele>580.7142857142858</ele><time>2026-04-18T09:16:10.291Z</time></trkpt><trkpt lat="44.8398825" lon="9.4806436"><ele>583.8571428571429</ele><time>2026-04-18T09:16:25.711Z</time></trkpt><trkpt lat="44.839862" lon="9.4805583"><ele>587.0</ele><time>2026-04-18T09:16:46.709Z</time></trkpt><trkpt lat="44.8398484" lon="9.4804644"><ele>591.2857142857143</ele><time>2026-04-18T09:17:08.668Z</time></trkpt><trkpt lat="44.8398451" lon="9.4803689"><ele>595.5714285714287</ele><time>2026-04-18T09:17:30.625Z</time></trkpt><trkpt lat="44.83979" lon="9.4802648"><ele>599.8571428571429</ele><time>2026-04-18T09:18:28.699Z</time></trkpt><trkpt lat="44.8397887" lon="9.4801759"><ele>604.1428571428571</ele><time>2026-04-18T09:18:45.618Z</time></trkpt><trkpt lat="44.839728" lon="9.4801389"><ele>608.4285714285713</ele><time>2026-04-18T09:18:54.618Z</time></trkpt><trkpt lat="44.8397475" lon="9.4800202"><ele>612.7142857142858</ele><time>2026-04-18T09:19:10.695Z</time></trkpt><trkpt lat="44.8397809" lon="9.4799432"><ele>617.0</ele><time>2026-04-18T09:19:28.695Z</time></trkpt><trkpt lat="44.8398254" lon="9.4798781"><ele>617.0</ele><time>2026-04-18T09:20:09.73Z</time></trkpt><trkpt lat="44.8398681" lon="9.4798118"><ele>617.0</ele><time>2026-04-18T09:20:30.496Z</time></trkpt><trkpt lat="44.8399042" lon="9.4797334"><ele>617.0</ele><time>2026-04-18T09:20:44.647Z</time></trkpt><trkpt lat="44.839941" lon="9.4796504"><ele>617.0</ele><time>2026-04-18T09:21:08.644Z</time></trkpt><trkpt lat="44.8399887" lon="9.479592"><ele>617.0</ele><time>2026-04-18T09:21:18.724Z</time></trkpt><trkpt lat="44.8400041" lon="9.4794964"><ele>617.0</ele><time>2026-04-18T09:21:39.721Z</time></trkpt><trkpt lat="44.8401019" lon="9.4794404"><ele>617.0</ele><time>2026-04-18T09:22:07.678Z</time></trkpt><trkpt lat="44.8401641" lon="9.4793954"><ele>619.2857142857143</ele><time>2026-04-18T09:23:48.637Z</time></trkpt><trkpt lat="44.840216" lon="9.4793349"><ele>621.5714285714286</ele><time>2026-04-18T09:23:58.667Z</time></trkpt><trkpt lat="44.8402575" lon="9.479234"><ele>623.8571428571429</ele><time>2026-04-18T09:24:15.707Z</time></trkpt><trkpt lat="44.8402639" lon="9.479134"><ele>626.1428571428571</ele><time>2026-04-18T09:24:21.705Z</time></trkpt><trkpt lat="44.8402875" lon="9.4790498"><ele>628.4285714285714</ele><time>2026-04-18T09:24:34.665Z</time></trkpt><trkpt lat="44.8402922" lon="9.4789577"><ele>630.7142857142857</ele><time>2026-04-18T09:24:48.703Z</time></trkpt><trkpt lat="44.8403027" lon="9.4788521"><ele>633.0</ele><time>2026-04-18T09:25:08.649Z</time></trkpt><trkpt lat="44.8402648" lon="9.4787733"><ele>639.1428571428571</ele><time>2026-04-18T09:25:18.7Z</time></trkpt><trkpt lat="44.8402615" lon="9.4786846"><ele>645.2857142857143</ele><time>2026-04-18T09:25:27.7Z</time></trkpt><trkpt lat="44.8402541" lon="9.478593"><ele>651.4285714285714</ele><time>2026-04-18T09:25:48.698Z</time></trkpt><trkpt lat="44.8402573" lon="9.4785028"><ele>657.5714285714286</ele><time>2026-04-18T09:26:07.657Z</time></trkpt><trkpt lat="44.840285" lon="9.478419"><ele>663.7142857142857</ele><time>2026-04-18T09:26:19.656Z</time></trkpt><trkpt lat="44.8403074" lon="9.4782894"><ele>669.8571428571429</ele><time>2026-04-18T09:26:44.733Z</time></trkpt><trkpt lat="44.8403491" lon="9.4782215"><ele>676.0</ele><time>2026-04-18T09:26:54.63Z</time></trkpt><trkpt lat="44.8403482" lon="9.4781319"><ele>676.0</ele><time>2026-04-18T09:27:09.692Z</time></trkpt><trkpt lat="44.8403129" lon="9.478054"><ele>676.0</ele><time>2026-04-18T09:27:22.651Z</time></trkpt><trkpt lat="44.84027" lon="9.4779357"><ele>676.0</ele><time>2026-04-18T09:28:21.686Z</time></trkpt><trkpt lat="44.8402194" lon="9.4778737"><ele>676.0</ele><time>2026-04-18T09:28:26.632Z</time></trkpt><trkpt lat="44.8401756" lon="9.4778059"><ele>676.0</ele><time>2026-04-18T09:28:36.684Z</time></trkpt><trkpt lat="44.840141" lon="9.4777228"><ele>676.0</ele><time>2026-04-18T09:28:46.772Z</time></trkpt><trkpt lat="44.8401441" lon="9.4776293"><ele>676.0</ele><time>2026-04-18T09:28:55.643Z</time></trkpt><trkpt lat="44.8401895" lon="9.4775301"><ele>678.7142857142858</ele><time>2026-04-18T09:29:17.649Z</time></trkpt><trkpt lat="44.8402304" lon="9.477462"><ele>681.4285714285714</ele><time>2026-04-18T09:29:24.681Z</time></trkpt><trkpt lat="44.8402902" lon="9.4774228"><ele>684.1428571428571</ele><time>2026-04-18T09:29:30.68Z</time></trkpt><trkpt lat="44.8403482" lon="9.477388"><ele>686.8571428571429</ele><time>2026-04-18T09:29:36.665Z</time></trkpt><trkpt lat="44.8403928" lon="9.4773149"><ele>689.5714285714286</ele><time>2026-04-18T09:29:44.745Z</time></trkpt><trkpt lat="44.8404474" lon="9.4772598"><ele>692.2857142857143</ele><time>2026-04-18T09:29:52.724Z</time></trkpt><trkpt lat="44.8405014" lon="9.4772035"><ele>695.0</ele><time>2026-04-18T09:30:00.645Z</time></trkpt><trkpt lat="44.8405479" lon="9.4771222"><ele>693.4285714285714</ele><time>2026-04-18T09:30:07.604Z</time></trkpt><trkpt lat="44.8405888" lon="9.4770516"><ele>691.8571428571429</ele><time>2026-04-18T09:30:13.604Z</time></trkpt><trkpt lat="44.8406428" lon="9.4769975"><ele>690.2857142857142</ele><time>2026-04-18T09:30:19.604Z</time></trkpt><trkpt lat="44.8406943" lon="9.4769338"><ele>688.7142857142858</ele><time>2026-04-18T09:30:26.695Z</time></trkpt><trkpt lat="44.8407333" lon="9.4768496"><ele>687.1428571428571</ele><time>2026-04-18T09:30:34.602Z</time></trkpt><trkpt lat="44.8407414" lon="9.4767496"><ele>685.5714285714286</ele><time>2026-04-18T09:30:41.682Z</time></trkpt><trkpt lat="44.8407586" lon="9.4766583"><ele>684.0</ele><time>2026-04-18T09:30:48.642Z</time></trkpt><trkpt lat="44.8408192" lon="9.476612"><ele>683.9999999999999</ele><time>2026-04-18T09:30:59.681Z</time></trkpt><trkpt lat="44.8407886" lon="9.47653"><ele>684.0</ele><time>2026-04-18T09:31:11.679Z</time></trkpt><trkpt lat="44.8407245" lon="9.476512"><ele>684.0</ele><time>2026-04-18T09:31:21.628Z</time></trkpt><trkpt lat="44.8406808" lon="9.4764378"><ele>684.0</ele><time>2026-04-18T09:32:19.582Z</time></trkpt><trkpt lat="44.8406447" lon="9.4763571"><ele>684.0</ele><time>2026-04-18T09:32:35.551Z</time></trkpt><trkpt lat="44.8406799" lon="9.4762741"><ele>683.9999999999999</ele><time>2026-04-18T09:32:40.637Z</time></trkpt><trkpt lat="44.8407431" lon="9.4762413"><ele>684.0</ele><time>2026-04-18T09:32:47.598Z</time></trkpt><trkpt lat="44.8408324" lon="9.4762471"><ele>682.4285714285713</ele><time>2026-04-18T09:33:05.596Z</time></trkpt><trkpt lat="44.8408947" lon="9.4762109"><ele>680.8571428571429</ele><time>2026-04-18T09:33:17.689Z</time></trkpt><trkpt lat="44.8409342" lon="9.4761339"><ele>679.2857142857142</ele><time>2026-04-18T09:33:27.608Z</time></trkpt><trkpt lat="44.8409227" lon="9.4760352"><ele>677.7142857142857</ele><time>2026-04-18T09:33:35.688Z</time></trkpt><trkpt lat="44.8408992" lon="9.4759488"><ele>676.1428571428571</ele><time>2026-04-18T09:33:42.675Z</time></trkpt><trkpt lat="44.8408731" lon="9.4758602"><ele>674.5714285714286</ele><time>2026-04-18T09:33:49.635Z</time></trkpt><trkpt lat="44.8408798" lon="9.4757624"><ele>673.0</ele><time>2026-04-18T09:33:57.647Z</time></trkpt><trkpt lat="44.8408842" lon="9.4756668"><ele>673.0</ele><time>2026-04-18T09:34:04.634Z</time></trkpt><trkpt lat="44.8409495" lon="9.4756819"><ele>673.0</ele><time>2026-04-18T09:34:36.592Z</time></trkpt><trkpt lat="44.84101" lon="9.4757196"><ele>673.0</ele><time>2026-04-18T09:34:46.671Z</time></trkpt><trkpt lat="44.8410613" lon="9.4757759"><ele>673.0</ele><time>2026-04-18T09:34:56.631Z</time></trkpt><trkpt lat="44.8411319" lon="9.4758049"><ele>673.0</ele><time>2026-04-18T09:35:03.634Z</time></trkpt><trkpt lat="44.8411954" lon="9.4758412"><ele>673.0</ele><time>2026-04-18T09:35:12.533Z</time></trkpt><trkpt lat="44.8412684" lon="9.4758516"><ele>673.0</ele><time>2026-04-18T09:35:19.335Z</time></trkpt><trkpt lat="44.8413271" lon="9.4758096"><ele>673.7142857142858</ele><time>2026-04-18T09:35:27.612Z</time></trkpt><trkpt lat="44.8413762" lon="9.4757469"><ele>674.4285714285713</ele><time>2026-04-18T09:35:34.659Z</time></trkpt><trkpt lat="44.8414098" lon="9.4756631"><ele>675.1428571428571</ele><time>2026-04-18T09:35:41.619Z</time></trkpt><trkpt lat="44.8414284" lon="9.4755694"><ele>675.8571428571429</ele><time>2026-04-18T09:36:04.539Z</time></trkpt><trkpt lat="44.8414732" lon="9.4755061"><ele>676.5714285714287</ele><time>2026-04-18T09:36:11.47Z</time></trkpt><trkpt lat="44.8415291" lon="9.4754411"><ele>677.2857142857142</ele><time>2026-04-18T09:36:17.618Z</time></trkpt><trkpt lat="44.8415863" lon="9.475389"><ele>678.0</ele><time>2026-04-18T09:36:23.618Z</time></trkpt><trkpt lat="44.8416463" lon="9.4753325"><ele>678.0</ele><time>2026-04-18T09:36:30.697Z</time></trkpt><trkpt lat="44.841688" lon="9.4752566"><ele>678.0</ele><time>2026-04-18T09:36:36.669Z</time></trkpt><trkpt lat="44.8417116" lon="9.4751645"><ele>678.0</ele><time>2026-04-18T09:36:44.589Z</time></trkpt><trkpt lat="44.8417235" lon="9.4750647"><ele>678.0</ele><time>2026-04-18T09:36:55.656Z</time></trkpt><trkpt lat="44.8417365" lon="9.474972"><ele>678.0</ele><time>2026-04-18T09:37:02.608Z</time></trkpt><trkpt lat="44.8417335" lon="9.4748746"><ele>678.0</ele><time>2026-04-18T09:37:10.654Z</time></trkpt><trkpt lat="44.8417131" lon="9.4747786"><ele>678.0</ele><time>2026-04-18T09:37:15.627Z</time></trkpt><trkpt lat="44.8417117" lon="9.4746841"><ele>677.4285714285714</ele><time>2026-04-18T09:37:21.574Z</time></trkpt><trkpt lat="44.8417499" lon="9.4746003"><ele>676.8571428571429</ele><time>2026-04-18T09:37:29.614Z</time></trkpt><trkpt lat="44.8417963" lon="9.4745355"><ele>676.2857142857143</ele><time>2026-04-18T09:37:36.566Z</time></trkpt><trkpt lat="44.8418079" lon="9.4744338"><ele>675.7142857142858</ele><time>2026-04-18T09:38:07.693Z</time></trkpt><trkpt lat="44.8418329" lon="9.4743499"><ele>675.1428571428571</ele><time>2026-04-18T09:38:13.651Z</time></trkpt><trkpt lat="44.8418662" lon="9.4742526"><ele>674.5714285714287</ele><time>2026-04-18T09:38:19.314Z</time></trkpt><trkpt lat="44.8419317" lon="9.4742238"><ele>674.0</ele><time>2026-04-18T09:38:27.652Z</time></trkpt><trkpt lat="44.8420006" lon="9.4741976"><ele>676.1428571428572</ele><time>2026-04-18T09:38:36.192Z</time></trkpt><trkpt lat="44.8420381" lon="9.4741256"><ele>678.2857142857143</ele><time>2026-04-18T09:38:45.691Z</time></trkpt><trkpt lat="44.8420522" lon="9.4740329"><ele>680.4285714285714</ele><time>2026-04-18T09:38:56.608Z</time></trkpt><trkpt lat="44.8420675" lon="9.4739417"><ele>682.5714285714287</ele><time>2026-04-18T09:39:02.607Z</time></trkpt><trkpt lat="44.842124" lon="9.4738874"><ele>684.7142857142858</ele><time>2026-04-18T09:39:09.61Z</time></trkpt><trkpt lat="44.8421487" lon="9.4737994"><ele>686.8571428571429</ele><time>2026-04-18T09:39:16.647Z</time></trkpt><trkpt lat="44.8421611" lon="9.4737086"><ele>689.0</ele><time>2026-04-18T09:39:22.469Z</time></trkpt><trkpt lat="44.8421913" lon="9.4736303"><ele>689.0</ele><time>2026-04-18T09:39:31.646Z</time></trkpt><trkpt lat="44.8421661" lon="9.4735421"><ele>689.0</ele><time>2026-04-18T09:39:39.568Z</time></trkpt><trkpt lat="44.8421852" lon="9.4734571"><ele>689.0</ele><time>2026-04-18T09:39:45.685Z</time></trkpt><trkpt lat="44.8422402" lon="9.4734057"><ele>689.0</ele><time>2026-04-18T09:39:55.644Z</time></trkpt><trkpt lat="44.8422727" lon="9.473326"><ele>689.0</ele><time>2026-04-18T09:40:05.588Z</time></trkpt><trkpt lat="44.8422934" lon="9.4732355"><ele>689.0</ele><time>2026-04-18T09:40:12.705Z</time></trkpt><trkpt lat="44.8423379" lon="9.4731704"><ele>689.0</ele><time>2026-04-18T09:40:21.614Z</time></trkpt><trkpt lat="44.8424047" lon="9.4731432"><ele>689.0</ele><time>2026-04-18T09:40:30.665Z</time></trkpt><trkpt lat="44.8424647" lon="9.4731023"><ele>689.0</ele><time>2026-04-18T09:40:36.492Z</time></trkpt><trkpt lat="44.8425326" lon="9.4730792"><ele>689.0</ele><time>2026-04-18T09:40:43.713Z</time></trkpt><trkpt lat="44.8425992" lon="9.473061"><ele>689.0</ele><time>2026-04-18T09:40:51.664Z</time></trkpt><trkpt lat="44.8426633" lon="9.4730661"><ele>689.0</ele><time>2026-04-18T09:40:58.624Z</time></trkpt><trkpt lat="44.8427305" lon="9.4730854"><ele>689.0</ele><time>2026-04-18T09:41:08.57Z</time></trkpt><trkpt lat="44.8428063" lon="9.4730851"><ele>689.0</ele><time>2026-04-18T09:41:14.578Z</time></trkpt><trkpt lat="44.8428693" lon="9.4730542"><ele>690.1428571428571</ele><time>2026-04-18T09:41:19.611Z</time></trkpt><trkpt lat="44.8429296" lon="9.4730148"><ele>691.2857142857143</ele><time>2026-04-18T09:41:28.708Z</time></trkpt><trkpt lat="44.8429929" lon="9.4729773"><ele>692.4285714285714</ele><time>2026-04-18T09:41:36.656Z</time></trkpt><trkpt lat="44.8430494" lon="9.4729374"><ele>693.5714285714286</ele><time>2026-04-18T09:41:42.657Z</time></trkpt><trkpt lat="44.8431114" lon="9.4729117"><ele>694.7142857142857</ele><time>2026-04-18T09:41:50.696Z</time></trkpt><trkpt lat="44.8431781" lon="9.4729285"><ele>695.8571428571429</ele><time>2026-04-18T09:42:00.536Z</time></trkpt><trkpt lat="44.8432417" lon="9.4729198"><ele>697.0</ele><time>2026-04-18T09:42:06.654Z</time></trkpt><trkpt lat="44.8433069" lon="9.4729266"><ele>697.0</ele><time>2026-04-18T09:42:16.614Z</time></trkpt><trkpt lat="44.8433749" lon="9.4729113"><ele>697.0</ele><time>2026-04-18T09:42:23.647Z</time></trkpt><trkpt lat="44.843439" lon="9.4729257"><ele>697.0</ele><time>2026-04-18T09:42:32.694Z</time></trkpt><trkpt lat="44.8435114" lon="9.4729315"><ele>697.0</ele><time>2026-04-18T09:42:41.694Z</time></trkpt><trkpt lat="44.8435787" lon="9.472902"><ele>697.0</ele><time>2026-04-18T09:42:48.624Z</time></trkpt><trkpt lat="44.8436469" lon="9.4729024"><ele>697.0</ele><time>2026-04-18T09:42:59.573Z</time></trkpt><trkpt lat="44.8437048" lon="9.4728672"><ele>697.0</ele><time>2026-04-18T09:43:09.633Z</time></trkpt><trkpt lat="44.8437639" lon="9.4728223"><ele>700.0</ele><time>2026-04-18T09:43:20.632Z</time></trkpt><trkpt lat="44.8438246" lon="9.4727899"><ele>703.0</ele><time>2026-04-18T09:43:29.633Z</time></trkpt><trkpt lat="44.8438843" lon="9.4727442"><ele>706.0</ele><time>2026-04-18T09:43:38.592Z</time></trkpt><trkpt lat="44.8439915" lon="9.4727433"><ele>709.0</ele><time>2026-04-18T09:44:00.672Z</time></trkpt><trkpt lat="44.8440827" lon="9.4727618"><ele>712.0</ele><time>2026-04-18T09:44:21.672Z</time></trkpt><trkpt lat="44.8442066" lon="9.4727479"><ele>711.9999999999999</ele><time>2026-04-18T09:45:25.63Z</time></trkpt><trkpt lat="44.8442732" lon="9.4727262"><ele>712.0</ele><time>2026-04-18T09:45:34.672Z</time></trkpt><trkpt lat="44.8443338" lon="9.4727648"><ele>712.0</ele><time>2026-04-18T09:45:45.668Z</time></trkpt><trkpt lat="44.8443314" lon="9.4728612"><ele>712.0</ele><time>2026-04-18T09:45:52.629Z</time></trkpt><trkpt lat="44.8443493" lon="9.4729516"><ele>712.0</ele><time>2026-04-18T09:46:03.712Z</time></trkpt><trkpt lat="44.8443643" lon="9.4730468"><ele>711.9999999999999</ele><time>2026-04-18T09:46:12.668Z</time></trkpt><trkpt lat="44.8444325" lon="9.4730547"><ele>712.0</ele><time>2026-04-18T09:46:21.667Z</time></trkpt><trkpt lat="44.8444959" lon="9.4730462"><ele>713.5714285714286</ele><time>2026-04-18T09:46:28.626Z</time></trkpt><trkpt lat="44.8445586" lon="9.4730263"><ele>715.1428571428571</ele><time>2026-04-18T09:46:36.667Z</time></trkpt><trkpt lat="44.8446226" lon="9.4730247"><ele>716.7142857142858</ele><time>2026-04-18T09:46:43.627Z</time></trkpt><trkpt lat="44.8446922" lon="9.4730082"><ele>718.2857142857142</ele><time>2026-04-18T09:46:51.529Z</time></trkpt><trkpt lat="44.8447564" lon="9.4729811"><ele>719.8571428571429</ele><time>2026-04-18T09:47:01.626Z</time></trkpt><trkpt lat="44.8447979" lon="9.4729095"><ele>721.4285714285714</ele><time>2026-04-18T09:47:09.665Z</time></trkpt><trkpt lat="44.844817" lon="9.4729975"><ele>723.0</ele><time>2026-04-18T09:48:42.661Z</time></trkpt><trkpt lat="44.8448528" lon="9.4730761"><ele>737.0</ele><time>2026-04-18T09:48:47.581Z</time></trkpt><trkpt lat="44.8448861" lon="9.4731563"><ele>737.0</ele><time>2026-04-18T09:48:59.572Z</time></trkpt><trkpt lat="44.8449456" lon="9.4731858"><ele>737.0</ele><time>2026-04-18T09:49:11.711Z</time></trkpt><trkpt lat="44.8450086" lon="9.4732516"><ele>737.0</ele><time>2026-04-18T09:49:30.491Z</time></trkpt><trkpt lat="44.8450146" lon="9.4733624"><ele>737.0</ele><time>2026-04-18T09:50:24.656Z</time></trkpt><trkpt lat="44.8449749" lon="9.473441"><ele>737.0</ele><time>2026-04-18T09:53:40.604Z</time></trkpt></trkseg><trkseg><trkpt lat="44.8442676" lon="9.4754349"><ele>785.0000000000001</ele><time>2026-04-18T10:49:30.703Z</time></trkpt><trkpt lat="44.8443118" lon="9.4753487"><ele>784.0</ele><time>2026-04-18T10:50:32.659Z</time></trkpt><trkpt lat="44.8443417" lon="9.4752683"><ele>783.0</ele><time>2026-04-18T10:50:56.403Z</time></trkpt><trkpt lat="44.8443734" lon="9.4751912"><ele>782.0</ele><time>2026-04-18T10:51:14.66Z</time></trkpt><trkpt lat="44.8443788" lon="9.4751018"><ele>781.0</ele><time>2026-04-18T10:52:27.66Z</time></trkpt><trkpt lat="44.8444217" lon="9.4749933"><ele>780.0000000000001</ele><time>2026-04-18T10:53:28.403Z</time></trkpt><trkpt lat="44.8444767" lon="9.4749383"><ele>779.0</ele><time>2026-04-18T10:53:49.403Z</time></trkpt><trkpt lat="44.8444967" lon="9.4748533"><ele>779.0000000000001</ele><time>2026-04-18T10:54:09.402Z</time></trkpt><trkpt lat="44.8445067" lon="9.4747617"><ele>779.0</ele><time>2026-04-18T10:54:32.402Z</time></trkpt><trkpt lat="44.84454" lon="9.474645"><ele>779.0</ele><time>2026-04-18T10:54:59.403Z</time></trkpt><trkpt lat="44.8445869" lon="9.4745855"><ele>779.0</ele><time>2026-04-18T10:55:06.655Z</time></trkpt><trkpt lat="44.8446423" lon="9.4745285"><ele>779.0</ele><time>2026-04-18T10:55:12.7Z</time></trkpt><trkpt lat="44.8446661" lon="9.4744444"><ele>779.0000000000001</ele><time>2026-04-18T10:55:32.68Z</time></trkpt><trkpt lat="44.8446877" lon="9.4743587"><ele>779.0</ele><time>2026-04-18T10:56:07.7Z</time></trkpt><trkpt lat="44.8446736" lon="9.4742716"><ele>777.2857142857143</ele><time>2026-04-18T10:56:47.692Z</time></trkpt><trkpt lat="44.8446815" lon="9.474158"><ele>775.5714285714286</ele><time>2026-04-18T10:57:07.651Z</time></trkpt><trkpt lat="44.8447109" lon="9.474075"><ele>773.8571428571429</ele><time>2026-04-18T10:57:16.6Z</time></trkpt><trkpt lat="44.8447573" lon="9.4740063"><ele>772.1428571428571</ele><time>2026-04-18T10:57:24.589Z</time></trkpt><trkpt lat="44.8448206" lon="9.4739709"><ele>770.4285714285714</ele><time>2026-04-18T10:57:40.659Z</time></trkpt><trkpt lat="44.8448633" lon="9.4739002"><ele>768.7142857142858</ele><time>2026-04-18T10:58:00.515Z</time></trkpt><trkpt lat="44.84492" lon="9.4738557"><ele>767.0</ele><time>2026-04-18T10:58:42.656Z</time></trkpt><trkpt lat="44.8449792" lon="9.4738214"><ele>762.7142857142858</ele><time>2026-04-18T10:59:03.669Z</time></trkpt><trkpt lat="44.8449857" lon="9.4737326"><ele>758.4285714285714</ele><time>2026-04-18T11:00:03.664Z</time></trkpt><trkpt lat="44.8449567" lon="9.4736433"><ele>754.1428571428571</ele><time>2026-04-18T11:01:00.217Z</time></trkpt><trkpt lat="44.8449567" lon="9.4735517"><ele>749.8571428571429</ele><time>2026-04-18T11:02:12.403Z</time></trkpt><trkpt lat="44.84489" lon="9.47354"><ele>745.5714285714286</ele><time>2026-04-18T11:02:38.403Z</time></trkpt><trkpt lat="44.8449439" lon="9.4734764"><ele>741.2857142857143</ele><time>2026-04-18T11:03:35.602Z</time></trkpt><trkpt lat="44.8449964" lon="9.4734164"><ele>737.0</ele><time>2026-04-18T11:05:07.613Z</time></trkpt><trkpt lat="44.844952" lon="9.4733134"><ele>737.0</ele><time>2026-04-18T11:06:50.592Z</time></trkpt><trkpt lat="44.8449575" lon="9.4732233"><ele>737.0</ele><time>2026-04-18T11:07:47.655Z</time></trkpt><trkpt lat="44.8449025" lon="9.4731706"><ele>737.0</ele><time>2026-04-18T11:07:57.654Z</time></trkpt><trkpt lat="44.8448915" lon="9.473076"><ele>737.0</ele><time>2026-04-18T11:08:22.679Z</time></trkpt><trkpt lat="44.8448711" lon="9.4729844"><ele>737.0</ele><time>2026-04-18T11:08:32.669Z</time></trkpt><trkpt lat="44.8448075" lon="9.4729296"><ele>737.0</ele><time>2026-04-18T11:08:39.686Z</time></trkpt><trkpt lat="44.8446956" lon="9.4729523"><ele>737.0000000000001</ele><time>2026-04-18T11:15:55.637Z</time></trkpt><trkpt lat="44.844623" lon="9.472969"><ele>737.0</ele><time>2026-04-18T11:16:03.704Z</time></trkpt><trkpt lat="44.8445546" lon="9.4729751"><ele>737.0</ele><time>2026-04-18T11:16:09.642Z</time></trkpt><trkpt lat="44.8444914" lon="9.4730192"><ele>737.0</ele><time>2026-04-18T11:16:14.586Z</time></trkpt><trkpt lat="44.8444205" lon="9.4730346"><ele>737.0</ele><time>2026-04-18T11:16:21.64Z</time></trkpt><trkpt lat="44.8443585" lon="9.4729958"><ele>737.0000000000001</ele><time>2026-04-18T11:16:29.501Z</time></trkpt><trkpt lat="44.8443631" lon="9.4728965"><ele>737.0</ele><time>2026-04-18T11:16:37.683Z</time></trkpt><trkpt lat="44.8443468" lon="9.4727991"><ele>735.0000000000001</ele><time>2026-04-18T11:16:43.598Z</time></trkpt><trkpt lat="44.84433" lon="9.4727063"><ele>733.0</ele><time>2026-04-18T11:16:49.6Z</time></trkpt><trkpt lat="44.844253" lon="9.4727199"><ele>731.0</ele><time>2026-04-18T11:16:55.199Z</time></trkpt><trkpt lat="44.8441861" lon="9.4727027"><ele>729.0</ele><time>2026-04-18T11:17:01.4Z</time></trkpt><trkpt lat="44.8441182" lon="9.4727095"><ele>727.0</ele><time>2026-04-18T11:17:09.635Z</time></trkpt><trkpt lat="44.8440555" lon="9.4727184"><ele>725.0000000000001</ele><time>2026-04-18T11:17:19.596Z</time></trkpt><trkpt lat="44.843991" lon="9.472731"><ele>723.0</ele><time>2026-04-18T11:17:26.643Z</time></trkpt><trkpt lat="44.8439242" lon="9.4727075"><ele>721.4285714285714</ele><time>2026-04-18T11:17:37.385Z</time></trkpt><trkpt lat="44.8438545" lon="9.4727208"><ele>719.8571428571429</ele><time>2026-04-18T11:17:44.636Z</time></trkpt><trkpt lat="44.8437941" lon="9.4727618"><ele>718.2857142857142</ele><time>2026-04-18T11:17:50.635Z</time></trkpt><trkpt lat="44.8437286" lon="9.4727862"><ele>716.7142857142858</ele><time>2026-04-18T11:17:57.594Z</time></trkpt><trkpt lat="44.8436694" lon="9.4728394"><ele>715.1428571428571</ele><time>2026-04-18T11:18:04.502Z</time></trkpt><trkpt lat="44.8436006" lon="9.4728777"><ele>713.5714285714286</ele><time>2026-04-18T11:18:11.681Z</time></trkpt><trkpt lat="44.8435376" lon="9.4728892"><ele>712.0</ele><time>2026-04-18T11:18:17.633Z</time></trkpt><trkpt lat="44.8434689" lon="9.4729106"><ele>709.8571428571428</ele><time>2026-04-18T11:18:24.58Z</time></trkpt><trkpt lat="44.8433987" lon="9.4728884"><ele>707.7142857142857</ele><time>2026-04-18T11:18:31.671Z</time></trkpt><trkpt lat="44.843329" lon="9.4728973"><ele>705.5714285714286</ele><time>2026-04-18T11:18:36.59Z</time></trkpt><trkpt lat="44.8432594" lon="9.4728761"><ele>703.4285714285713</ele><time>2026-04-18T11:18:42.877Z</time></trkpt><trkpt lat="44.8431862" lon="9.4728755"><ele>701.2857142857142</ele><time>2026-04-18T11:18:48.637Z</time></trkpt><trkpt lat="44.8431151" lon="9.4728752"><ele>699.1428571428571</ele><time>2026-04-18T11:18:54.708Z</time></trkpt><trkpt lat="44.843044" lon="9.4728805"><ele>697.0</ele><time>2026-04-18T11:19:00.707Z</time></trkpt><trkpt lat="44.8429819" lon="9.4729293"><ele>697.4285714285714</ele><time>2026-04-18T11:19:05.627Z</time></trkpt><trkpt lat="44.8429108" lon="9.4729659"><ele>697.8571428571429</ele><time>2026-04-18T11:19:10.666Z</time></trkpt><trkpt lat="44.8428501" lon="9.4730107"><ele>698.2857142857142</ele><time>2026-04-18T11:19:15.702Z</time></trkpt><trkpt lat="44.8427905" lon="9.4730628"><ele>698.7142857142858</ele><time>2026-04-18T11:19:20.625Z</time></trkpt><trkpt lat="44.8427235" lon="9.4730788"><ele>699.1428571428571</ele><time>2026-04-18T11:19:25.663Z</time></trkpt><trkpt lat="44.8426534" lon="9.4730605"><ele>699.5714285714286</ele><time>2026-04-18T11:19:31.561Z</time></trkpt><trkpt lat="44.8425801" lon="9.4730403"><ele>700.0</ele><time>2026-04-18T11:19:37.52Z</time></trkpt><trkpt lat="44.8425174" lon="9.4730624"><ele>698.4285714285714</ele><time>2026-04-18T11:19:42.701Z</time></trkpt><trkpt lat="44.8424472" lon="9.4731033"><ele>696.8571428571429</ele><time>2026-04-18T11:19:47.579Z</time></trkpt><trkpt lat="44.8423825" lon="9.4731354"><ele>695.2857142857142</ele><time>2026-04-18T11:19:53.578Z</time></trkpt><trkpt lat="44.842317" lon="9.4731663"><ele>693.7142857142858</ele><time>2026-04-18T11:19:58.659Z</time></trkpt><trkpt lat="44.8422627" lon="9.4732145"><ele>692.1428571428571</ele><time>2026-04-18T11:20:02.618Z</time></trkpt><trkpt lat="44.8422322" lon="9.4733072"><ele>690.5714285714286</ele><time>2026-04-18T11:20:07.659Z</time></trkpt><trkpt lat="44.8422093" lon="9.4734002"><ele>689.0</ele><time>2026-04-18T11:20:12.698Z</time></trkpt><trkpt lat="44.8421575" lon="9.4734571"><ele>689.0</ele><time>2026-04-18T11:20:20.783Z</time></trkpt><trkpt lat="44.8421211" lon="9.4735494"><ele>689.0</ele><time>2026-04-18T11:20:27.695Z</time></trkpt><trkpt lat="44.8421433" lon="9.473634"><ele>689.0</ele><time>2026-04-18T11:20:37.654Z</time></trkpt><trkpt lat="44.8421182" lon="9.4737229"><ele>689.0</ele><time>2026-04-18T11:20:49.921Z</time></trkpt><trkpt lat="44.8420909" lon="9.4738141"><ele>689.0</ele><time>2026-04-18T11:20:56.48Z</time></trkpt><trkpt lat="44.842056" lon="9.4738914"><ele>689.0</ele><time>2026-04-18T11:21:02.61Z</time></trkpt><trkpt lat="44.8420125" lon="9.4739576"><ele>689.0</ele><time>2026-04-18T11:21:07.65Z</time></trkpt><trkpt lat="44.842009" lon="9.474062"><ele>689.4285714285714</ele><time>2026-04-18T11:21:13.65Z</time></trkpt><trkpt lat="44.8419924" lon="9.4741492"><ele>689.8571428571429</ele><time>2026-04-18T11:21:19.648Z</time></trkpt><trkpt lat="44.8419405" lon="9.4742088"><ele>690.2857142857142</ele><time>2026-04-18T11:21:30.584Z</time></trkpt><trkpt lat="44.841873" lon="9.4742269"><ele>690.7142857142858</ele><time>2026-04-18T11:21:39.686Z</time></trkpt><trkpt lat="44.8418301" lon="9.4742924"><ele>691.1428571428572</ele><time>2026-04-18T11:21:44.683Z</time></trkpt><trkpt lat="44.8417976" lon="9.4743891"><ele>691.5714285714286</ele><time>2026-04-18T11:21:49.644Z</time></trkpt><trkpt lat="44.8417722" lon="9.474471"><ele>692.0</ele><time>2026-04-18T11:21:54.683Z</time></trkpt><trkpt lat="44.8417445" lon="9.4745578"><ele>690.0</ele><time>2026-04-18T11:21:59.502Z</time></trkpt><trkpt lat="44.8417246" lon="9.4746609"><ele>688.0</ele><time>2026-04-18T11:22:05.699Z</time></trkpt><trkpt lat="44.8416914" lon="9.4747504"><ele>686.0</ele><time>2026-04-18T11:22:11.722Z</time></trkpt><trkpt lat="44.8416968" lon="9.4748666"><ele>684.0</ele><time>2026-04-18T11:22:18.258Z</time></trkpt><trkpt lat="44.8417237" lon="9.4749488"><ele>682.0</ele><time>2026-04-18T11:22:22.639Z</time></trkpt><trkpt lat="44.8416916" lon="9.4750319"><ele>680.0</ele><time>2026-04-18T11:22:29.636Z</time></trkpt><trkpt lat="44.8416873" lon="9.4751304"><ele>678.0</ele><time>2026-04-18T11:22:36.678Z</time></trkpt><trkpt lat="44.8416615" lon="9.4752133"><ele>678.0</ele><time>2026-04-18T11:22:45.678Z</time></trkpt><trkpt lat="44.841626" lon="9.4752909"><ele>678.0</ele><time>2026-04-18T11:22:54.676Z</time></trkpt><trkpt lat="44.8415677" lon="9.4753334"><ele>678.0</ele><time>2026-04-18T11:23:00.675Z</time></trkpt><trkpt lat="44.8415129" lon="9.4753927"><ele>678.0</ele><time>2026-04-18T11:23:06.102Z</time></trkpt><trkpt lat="44.8414641" lon="9.4754624"><ele>678.0</ele><time>2026-04-18T11:23:11.702Z</time></trkpt><trkpt lat="44.8414112" lon="9.4755384"><ele>678.0</ele><time>2026-04-18T11:23:17.661Z</time></trkpt><trkpt lat="44.841382" lon="9.4756284"><ele>678.0</ele><time>2026-04-18T11:23:23.592Z</time></trkpt><trkpt lat="44.8413427" lon="9.4757134"><ele>677.2857142857142</ele><time>2026-04-18T11:23:29.559Z</time></trkpt><trkpt lat="44.8412907" lon="9.4757772"><ele>676.5714285714287</ele><time>2026-04-18T11:23:35.711Z</time></trkpt><trkpt lat="44.8412283" lon="9.4758057"><ele>675.8571428571429</ele><time>2026-04-18T11:23:41.591Z</time></trkpt><trkpt lat="44.8411649" lon="9.4758194"><ele>675.1428571428571</ele><time>2026-04-18T11:23:47.71Z</time></trkpt><trkpt lat="44.8410979" lon="9.4757934"><ele>674.4285714285713</ele><time>2026-04-18T11:23:54.669Z</time></trkpt><trkpt lat="44.8410398" lon="9.4757347"><ele>673.7142857142858</ele><time>2026-04-18T11:24:00.656Z</time></trkpt><trkpt lat="44.840976" lon="9.4756888"><ele>673.0</ele><time>2026-04-18T11:24:07.504Z</time></trkpt><trkpt lat="44.8409222" lon="9.475629"><ele>673.0</ele><time>2026-04-18T11:24:17.582Z</time></trkpt><trkpt lat="44.8408796" lon="9.4757161"><ele>673.0</ele><time>2026-04-18T11:24:24.664Z</time></trkpt><trkpt lat="44.8408729" lon="9.4758054"><ele>673.0</ele><time>2026-04-18T11:24:28.661Z</time></trkpt><trkpt lat="44.8408769" lon="9.4758953"><ele>673.0</ele><time>2026-04-18T11:24:33.663Z</time></trkpt><trkpt lat="44.8409022" lon="9.4759835"><ele>673.0</ele><time>2026-04-18T11:24:38.621Z</time></trkpt><trkpt lat="44.8409274" lon="9.4760742"><ele>673.0</ele><time>2026-04-18T11:24:44.699Z</time></trkpt><trkpt lat="44.8409077" lon="9.4761697"><ele>673.0</ele><time>2026-04-18T11:24:51.661Z</time></trkpt><trkpt lat="44.8408517" lon="9.4762258"><ele>673.0</ele><time>2026-04-18T11:24:59.701Z</time></trkpt><trkpt lat="44.8407865" lon="9.476229"><ele>673.0</ele><time>2026-04-18T11:25:08.584Z</time></trkpt><trkpt lat="44.8407151" lon="9.4762473"><ele>673.0</ele><time>2026-04-18T11:25:15.622Z</time></trkpt><trkpt lat="44.8406555" lon="9.476307"><ele>673.0</ele><time>2026-04-18T11:25:21.623Z</time></trkpt><trkpt lat="44.8406132" lon="9.4763831"><ele>673.0</ele><time>2026-04-18T11:25:28.702Z</time></trkpt><trkpt lat="44.8406544" lon="9.4764568"><ele>673.0</ele><time>2026-04-18T11:25:36.706Z</time></trkpt><trkpt lat="44.8406922" lon="9.4765351"><ele>673.0</ele><time>2026-04-18T11:25:46.615Z</time></trkpt><trkpt lat="44.8407511" lon="9.4765684"><ele>674.5714285714286</ele><time>2026-04-18T11:25:54.609Z</time></trkpt><trkpt lat="44.8407994" lon="9.4766256"><ele>676.1428571428571</ele><time>2026-04-18T11:26:02.638Z</time></trkpt><trkpt lat="44.8407341" lon="9.4766471"><ele>677.7142857142857</ele><time>2026-04-18T11:26:12.597Z</time></trkpt><trkpt lat="44.8406884" lon="9.4767162"><ele>679.2857142857142</ele><time>2026-04-18T11:26:18.65Z</time></trkpt><trkpt lat="44.8406958" lon="9.4768175"><ele>680.8571428571429</ele><time>2026-04-18T11:26:24.641Z</time></trkpt><trkpt lat="44.8406749" lon="9.4769027"><ele>682.4285714285713</ele><time>2026-04-18T11:26:32.655Z</time></trkpt><trkpt lat="44.8406089" lon="9.4769528"><ele>684.0</ele><time>2026-04-18T11:26:40.081Z</time></trkpt><trkpt lat="44.8405611" lon="9.4770178"><ele>683.9999999999999</ele><time>2026-04-18T11:26:46.673Z</time></trkpt><trkpt lat="44.8405232" lon="9.4770908"><ele>684.0</ele><time>2026-04-18T11:26:51.58Z</time></trkpt><trkpt lat="44.8404845" lon="9.4771662"><ele>684.0</ele><time>2026-04-18T11:26:57.6Z</time></trkpt><trkpt lat="44.8404308" lon="9.4772197"><ele>684.0</ele><time>2026-04-18T11:27:03.672Z</time></trkpt><trkpt lat="44.8403785" lon="9.4772728"><ele>684.0</ele><time>2026-04-18T11:27:09.219Z</time></trkpt><trkpt lat="44.840329" lon="9.4773357"><ele>683.9999999999999</ele><time>2026-04-18T11:27:14.696Z</time></trkpt><trkpt lat="44.8402653" lon="9.4773889"><ele>684.0</ele><time>2026-04-18T11:27:20.694Z</time></trkpt><trkpt lat="44.8402031" lon="9.4774456"><ele>684.5714285714286</ele><time>2026-04-18T11:27:26.664Z</time></trkpt><trkpt lat="44.8401678" lon="9.4775291"><ele>685.1428571428571</ele><time>2026-04-18T11:27:33.594Z</time></trkpt><trkpt lat="44.8401247" lon="9.4776127"><ele>685.7142857142858</ele><time>2026-04-18T11:27:39.713Z</time></trkpt><trkpt lat="44.8401086" lon="9.4777095"><ele>686.2857142857142</ele><time>2026-04-18T11:27:48.783Z</time></trkpt><trkpt lat="44.8401457" lon="9.4778018"><ele>686.8571428571429</ele><time>2026-04-18T11:27:54.596Z</time></trkpt><trkpt lat="44.8401649" lon="9.4779039"><ele>687.4285714285714</ele><time>2026-04-18T11:28:01.617Z</time></trkpt><trkpt lat="44.8402061" lon="9.4779857"><ele>688.0</ele><time>2026-04-18T11:28:06.602Z</time></trkpt><trkpt lat="44.8402565" lon="9.4780502"><ele>686.2857142857143</ele><time>2026-04-18T11:28:15.565Z</time></trkpt><trkpt lat="44.840262" lon="9.4781411"><ele>684.5714285714286</ele><time>2026-04-18T11:28:30.643Z</time></trkpt><trkpt lat="44.8402712" lon="9.4782338"><ele>682.8571428571429</ele><time>2026-04-18T11:28:42.595Z</time></trkpt><trkpt lat="44.8402657" lon="9.4783228"><ele>681.1428571428571</ele><time>2026-04-18T11:29:00.666Z</time></trkpt><trkpt lat="44.8402188" lon="9.4783838"><ele>679.4285714285714</ele><time>2026-04-18T11:29:10.667Z</time></trkpt><trkpt lat="44.8402144" lon="9.4784765"><ele>677.7142857142858</ele><time>2026-04-18T11:29:22.67Z</time></trkpt><trkpt lat="44.8401953" lon="9.4785615"><ele>676.0</ele><time>2026-04-18T11:30:29.684Z</time></trkpt><trkpt lat="44.8401835" lon="9.4786511"><ele>676.0</ele><time>2026-04-18T11:30:38.684Z</time></trkpt><trkpt lat="44.8401803" lon="9.4787401"><ele>676.0</ele><time>2026-04-18T11:30:52.707Z</time></trkpt><trkpt lat="44.8402091" lon="9.4788227"><ele>676.0</ele><time>2026-04-18T11:30:57.49Z</time></trkpt><trkpt lat="44.8402388" lon="9.4789071"><ele>676.0</ele><time>2026-04-18T11:31:02.688Z</time></trkpt><trkpt lat="44.8401969" lon="9.4790425"><ele>676.0</ele><time>2026-04-18T11:34:43.675Z</time></trkpt><trkpt lat="44.8401688" lon="9.4791272"><ele>676.0</ele><time>2026-04-18T11:34:49.676Z</time></trkpt><trkpt lat="44.8401845" lon="9.479226"><ele>676.0</ele><time>2026-04-18T11:34:56.68Z</time></trkpt><trkpt lat="44.8401671" lon="9.4793207"><ele>671.5714285714286</ele><time>2026-04-18T11:35:06.681Z</time></trkpt><trkpt lat="44.8401218" lon="9.4793863"><ele>667.1428571428571</ele><time>2026-04-18T11:35:12.723Z</time></trkpt><trkpt lat="44.8400745" lon="9.4794559"><ele>662.7142857142858</ele><time>2026-04-18T11:35:20.584Z</time></trkpt><trkpt lat="44.8399864" lon="9.4794765"><ele>658.2857142857142</ele><time>2026-04-18T11:36:09.682Z</time></trkpt><trkpt lat="44.8399308" lon="9.4795285"><ele>653.8571428571428</ele><time>2026-04-18T11:36:17.683Z</time></trkpt><trkpt lat="44.8399227" lon="9.4796166"><ele>649.4285714285714</ele><time>2026-04-18T11:36:25.683Z</time></trkpt><trkpt lat="44.8399029" lon="9.479708"><ele>645.0</ele><time>2026-04-18T11:36:44.735Z</time></trkpt><trkpt lat="44.8398444" lon="9.4797938"><ele>641.0</ele><time>2026-04-18T11:37:10.683Z</time></trkpt><trkpt lat="44.8397954" lon="9.479851"><ele>637.0</ele><time>2026-04-18T11:37:28.682Z</time></trkpt><trkpt lat="44.8397544" lon="9.4799207"><ele>633.0</ele><time>2026-04-18T11:38:00.602Z</time></trkpt><trkpt lat="44.8397129" lon="9.4799895"><ele>629.0</ele><time>2026-04-18T11:38:17.643Z</time></trkpt><trkpt lat="44.8396858" lon="9.480078"><ele>625.0</ele><time>2026-04-18T11:38:30.683Z</time></trkpt><trkpt lat="44.8396859" lon="9.4801712"><ele>621.0</ele><time>2026-04-18T11:38:40.657Z</time></trkpt><trkpt lat="44.8397358" lon="9.4802352"><ele>617.0</ele><time>2026-04-18T11:38:52.622Z</time></trkpt><trkpt lat="44.8397782" lon="9.4803029"><ele>617.0</ele><time>2026-04-18T11:39:08.623Z</time></trkpt><trkpt lat="44.8397657" lon="9.4804064"><ele>617.0</ele><time>2026-04-18T11:39:48.643Z</time></trkpt><trkpt lat="44.8397954" lon="9.4805175"><ele>617.0</ele><time>2026-04-18T11:40:21.659Z</time></trkpt><trkpt lat="44.8398066" lon="9.4806132"><ele>617.0</ele><time>2026-04-18T11:40:45.616Z</time></trkpt><trkpt lat="44.8398182" lon="9.4807493"><ele>617.0</ele><time>2026-04-18T11:41:37.703Z</time></trkpt><trkpt lat="44.8398491" lon="9.4808338"><ele>617.0</ele><time>2026-04-18T11:41:46.671Z</time></trkpt><trkpt lat="44.8398654" lon="9.4809196"><ele>612.7142857142858</ele><time>2026-04-18T11:42:07.675Z</time></trkpt><trkpt lat="44.8398771" lon="9.4810083"><ele>608.4285714285713</ele><time>2026-04-18T11:42:21.675Z</time></trkpt><trkpt lat="44.8398376" lon="9.4810867"><ele>604.1428571428571</ele><time>2026-04-18T11:42:33.675Z</time></trkpt><trkpt lat="44.839798" lon="9.4811625"><ele>599.8571428571429</ele><time>2026-04-18T11:42:44.678Z</time></trkpt><trkpt lat="44.8397854" lon="9.4812515"><ele>595.5714285714287</ele><time>2026-04-18T11:42:54.676Z</time></trkpt><trkpt lat="44.8397635" lon="9.4813374"><ele>591.2857142857143</ele><time>2026-04-18T11:43:08.718Z</time></trkpt><trkpt lat="44.8397392" lon="9.4814193"><ele>587.0</ele><time>2026-04-18T11:43:18.703Z</time></trkpt><trkpt lat="44.8396837" lon="9.4814679"><ele>583.8571428571429</ele><time>2026-04-18T11:43:27.619Z</time></trkpt><trkpt lat="44.8396428" lon="9.4815434"><ele>580.7142857142858</ele><time>2026-04-18T11:43:35.677Z</time></trkpt><trkpt lat="44.8396201" lon="9.4816347"><ele>577.5714285714286</ele><time>2026-04-18T11:43:44.719Z</time></trkpt><trkpt lat="44.8395542" lon="9.4816797"><ele>574.4285714285714</ele><time>2026-04-18T11:43:51.639Z</time></trkpt><trkpt lat="44.8394914" lon="9.4816975"><ele>571.2857142857142</ele><time>2026-04-18T11:43:57.679Z</time></trkpt><trkpt lat="44.8394202" lon="9.4817192"><ele>568.1428571428571</ele><time>2026-04-18T11:44:05.577Z</time></trkpt><trkpt lat="44.8393556" lon="9.4817541"><ele>565.0</ele><time>2026-04-18T11:44:11.577Z</time></trkpt><trkpt lat="44.8392869" lon="9.4817614"><ele>564.7142857142857</ele><time>2026-04-18T11:44:16.699Z</time></trkpt><trkpt lat="44.8392165" lon="9.4817845"><ele>564.4285714285714</ele><time>2026-04-18T11:44:23.576Z</time></trkpt><trkpt lat="44.8391532" lon="9.4818006"><ele>564.1428571428571</ele><time>2026-04-18T11:44:28.615Z</time></trkpt><trkpt lat="44.8390869" lon="9.4817879"><ele>563.8571428571429</ele><time>2026-04-18T11:44:36.616Z</time></trkpt><trkpt lat="44.8390241" lon="9.4817731"><ele>563.5714285714286</ele><time>2026-04-18T11:44:44.636Z</time></trkpt><trkpt lat="44.8389612" lon="9.481768"><ele>563.2857142857142</ele><time>2026-04-18T11:44:50.559Z</time></trkpt><trkpt lat="44.8388856" lon="9.4817667"><ele>563.0</ele><time>2026-04-18T11:44:56.599Z</time></trkpt><trkpt lat="44.8388151" lon="9.4817755"><ele>563.0</ele><time>2026-04-18T11:45:01.695Z</time></trkpt><trkpt lat="44.8387527" lon="9.4817907"><ele>563.0</ele><time>2026-04-18T11:45:06.735Z</time></trkpt><trkpt lat="44.8386868" lon="9.48182"><ele>563.0</ele><time>2026-04-18T11:45:12.736Z</time></trkpt><trkpt lat="44.8386171" lon="9.4818387"><ele>563.0</ele><time>2026-04-18T11:45:17.758Z</time></trkpt><trkpt lat="44.8385467" lon="9.4818589"><ele>563.0</ele><time>2026-04-18T11:45:23.298Z</time></trkpt><trkpt lat="44.8384789" lon="9.4818808"><ele>563.0</ele><time>2026-04-18T11:45:28.758Z</time></trkpt><trkpt lat="44.8384134" lon="9.4819229"><ele>563.0</ele><time>2026-04-18T11:45:35.656Z</time></trkpt><trkpt lat="44.8383601" lon="9.4819712"><ele>561.4285714285714</ele><time>2026-04-18T11:45:42.698Z</time></trkpt><trkpt lat="44.8383054" lon="9.4820255"><ele>559.8571428571429</ele><time>2026-04-18T11:45:50.667Z</time></trkpt><trkpt lat="44.8382454" lon="9.4820637"><ele>558.2857142857143</ele><time>2026-04-18T11:45:58.757Z</time></trkpt><trkpt lat="44.8381873" lon="9.4821166"><ele>556.7142857142858</ele><time>2026-04-18T11:46:09.734Z</time></trkpt><trkpt lat="44.8381322" lon="9.4821815"><ele>555.1428571428572</ele><time>2026-04-18T11:46:18.733Z</time></trkpt><trkpt lat="44.8380707" lon="9.4822055"><ele>553.5714285714286</ele><time>2026-04-18T11:46:24.717Z</time></trkpt><trkpt lat="44.8380115" lon="9.4822378"><ele>552.0</ele><time>2026-04-18T11:46:32.654Z</time></trkpt><trkpt lat="44.8379545" lon="9.4822779"><ele>550.8571428571429</ele><time>2026-04-18T11:46:37.693Z</time></trkpt><trkpt lat="44.8378892" lon="9.48233"><ele>549.7142857142858</ele><time>2026-04-18T11:46:42.734Z</time></trkpt><trkpt lat="44.8378254" lon="9.4823797"><ele>548.5714285714286</ele><time>2026-04-18T11:46:48.617Z</time></trkpt><trkpt lat="44.837772" lon="9.4824464"><ele>547.4285714285714</ele><time>2026-04-18T11:46:57.638Z</time></trkpt><trkpt lat="44.8377132" lon="9.4824794"><ele>546.2857142857142</ele><time>2026-04-18T11:47:04.692Z</time></trkpt><trkpt lat="44.8376498" lon="9.4824816"><ele>545.1428571428571</ele><time>2026-04-18T11:47:14.652Z</time></trkpt><trkpt lat="44.837584" lon="9.482476"><ele>544.0</ele><time>2026-04-18T11:47:22.635Z</time></trkpt><trkpt lat="44.8375163" lon="9.482462"><ele>542.8571428571428</ele><time>2026-04-18T11:47:29.705Z</time></trkpt><trkpt lat="44.8374468" lon="9.4824865"><ele>541.7142857142857</ele><time>2026-04-18T11:47:35.626Z</time></trkpt><trkpt lat="44.8373762" lon="9.4825325"><ele>540.5714285714286</ele><time>2026-04-18T11:47:40.706Z</time></trkpt><trkpt lat="44.8373131" lon="9.4825794"><ele>539.4285714285713</ele><time>2026-04-18T11:47:45.732Z</time></trkpt><trkpt lat="44.8372534" lon="9.4826451"><ele>538.2857142857142</ele><time>2026-04-18T11:47:50.652Z</time></trkpt><trkpt lat="44.837207" lon="9.4827155"><ele>537.1428571428571</ele><time>2026-04-18T11:47:55.691Z</time></trkpt><trkpt lat="44.837153" lon="9.4827817"><ele>536.0</ele><time>2026-04-18T11:48:02.67Z</time></trkpt><trkpt lat="44.837108" lon="9.4828537"><ele>536.0</ele><time>2026-04-18T11:48:08.65Z</time></trkpt><trkpt lat="44.8370431" lon="9.482893"><ele>536.0</ele><time>2026-04-18T11:48:13.69Z</time></trkpt><trkpt lat="44.836988" lon="9.4829503"><ele>536.0</ele><time>2026-04-18T11:48:20.024Z</time></trkpt><trkpt lat="44.836924" lon="9.4829911"><ele>536.0</ele><time>2026-04-18T11:48:25.404Z</time></trkpt><trkpt lat="44.8368632" lon="9.4830167"><ele>536.0</ele><time>2026-04-18T11:48:30.762Z</time></trkpt><trkpt lat="44.8368065" lon="9.4830807"><ele>536.0</ele><time>2026-04-18T11:48:36.702Z</time></trkpt><trkpt lat="44.8367527" lon="9.4831485"><ele>536.0</ele><time>2026-04-18T11:48:43.696Z</time></trkpt><trkpt lat="44.8366955" lon="9.4831869"><ele>534.3333333333333</ele><time>2026-04-18T11:48:48.659Z</time></trkpt><trkpt lat="44.8365834" lon="9.4832499"><ele>532.6666666666666</ele><time>2026-04-18T11:49:35.659Z</time></trkpt><trkpt lat="44.8365265" lon="9.4833106"><ele>531.0</ele><time>2026-04-18T11:49:40.736Z</time></trkpt><trkpt lat="44.836473" lon="9.4833664"><ele>529.3333333333334</ele><time>2026-04-18T11:49:46.736Z</time></trkpt><trkpt lat="44.8364181" lon="9.4834243"><ele>527.6666666666667</ele><time>2026-04-18T11:49:52.736Z</time></trkpt><trkpt lat="44.8363642" lon="9.4834904"><ele>526.0</ele><time>2026-04-18T11:49:58.735Z</time></trkpt><trkpt lat="44.8363116" lon="9.4835509"><ele>526.0</ele><time>2026-04-18T11:50:03.718Z</time></trkpt><trkpt lat="44.8362732" lon="9.4836258"><ele>526.0</ele><time>2026-04-18T11:50:09.7Z</time></trkpt><trkpt lat="44.8362595" lon="9.4837257"><ele>526.0</ele><time>2026-04-18T11:50:15.607Z</time></trkpt><trkpt lat="44.8362614" lon="9.4838311"><ele>526.0</ele><time>2026-04-18T11:50:20.7Z</time></trkpt><trkpt lat="44.8362121" lon="9.4838981"><ele>526.0</ele><time>2026-04-18T11:50:27.767Z</time></trkpt><trkpt lat="44.8361599" lon="9.4839501"><ele>526.0</ele><time>2026-04-18T11:50:35.699Z</time></trkpt><trkpt lat="44.8360996" lon="9.4840049"><ele>526.0</ele><time>2026-04-18T11:50:41.699Z</time></trkpt><trkpt lat="44.8360384" lon="9.4840675"><ele>524.7142857142857</ele><time>2026-04-18T11:50:46.667Z</time></trkpt><trkpt lat="44.8359854" lon="9.4841244"><ele>523.4285714285713</ele><time>2026-04-18T11:50:51.627Z</time></trkpt><trkpt lat="44.8359444" lon="9.484194"><ele>522.1428571428571</ele><time>2026-04-18T11:50:56.699Z</time></trkpt><trkpt lat="44.8359016" lon="9.4842738"><ele>520.8571428571429</ele><time>2026-04-18T11:51:01.707Z</time></trkpt><trkpt lat="44.835846" lon="9.4843396"><ele>519.5714285714287</ele><time>2026-04-18T11:51:08.7Z</time></trkpt><trkpt lat="44.8357808" lon="9.4843931"><ele>518.2857142857143</ele><time>2026-04-18T11:51:14.699Z</time></trkpt><trkpt lat="44.8357396" lon="9.4844819"><ele>517.0</ele><time>2026-04-18T11:51:20.686Z</time></trkpt><trkpt lat="44.8356899" lon="9.484544"><ele>515.1428571428571</ele><time>2026-04-18T11:51:25.732Z</time></trkpt><trkpt lat="44.8356577" lon="9.4846224"><ele>513.2857142857143</ele><time>2026-04-18T11:51:30.7Z</time></trkpt><trkpt lat="44.835651" lon="9.4847251"><ele>511.42857142857144</ele><time>2026-04-18T11:51:35.7Z</time></trkpt><trkpt lat="44.8356502" lon="9.4848251"><ele>509.57142857142856</ele><time>2026-04-18T11:51:44.685Z</time></trkpt><trkpt lat="44.8356402" lon="9.4849147"><ele>507.7142857142857</ele><time>2026-04-18T11:51:50.699Z</time></trkpt><trkpt lat="44.8356165" lon="9.4850118"><ele>505.8571428571429</ele><time>2026-04-18T11:51:57.7Z</time></trkpt><trkpt lat="44.8355874" lon="9.4851079"><ele>504.0</ele><time>2026-04-18T11:52:02.764Z</time></trkpt><trkpt lat="44.8355414" lon="9.4851933"><ele>504.0</ele><time>2026-04-18T11:52:08.662Z</time></trkpt><trkpt lat="44.8355047" lon="9.4852791"><ele>504.0</ele><time>2026-04-18T11:52:15.7Z</time></trkpt><trkpt lat="44.8354714" lon="9.4853586"><ele>504.0</ele><time>2026-04-18T11:52:20.7Z</time></trkpt><trkpt lat="44.8354333" lon="9.4854399"><ele>504.0</ele><time>2026-04-18T11:52:26.7Z</time></trkpt><trkpt lat="44.8353998" lon="9.4855299"><ele>504.0</ele><time>2026-04-18T11:52:33.643Z</time></trkpt><trkpt lat="44.8353657" lon="9.4856101"><ele>504.0</ele><time>2026-04-18T11:52:38.723Z</time></trkpt><trkpt lat="44.8353448" lon="9.4856951"><ele>504.0</ele><time>2026-04-18T11:52:43.73Z</time></trkpt><trkpt lat="44.8353105" lon="9.4857862"><ele>502.1428571428571</ele><time>2026-04-18T11:52:49.662Z</time></trkpt><trkpt lat="44.8352831" lon="9.4858743"><ele>500.2857142857143</ele><time>2026-04-18T11:52:57.7Z</time></trkpt><trkpt lat="44.8352483" lon="9.4859645"><ele>498.42857142857144</ele><time>2026-04-18T11:53:04.729Z</time></trkpt><trkpt lat="44.8352219" lon="9.4860466"><ele>496.57142857142856</ele><time>2026-04-18T11:53:12.699Z</time></trkpt><trkpt lat="44.8352096" lon="9.4861337"><ele>494.71428571428567</ele><time>2026-04-18T11:53:32.699Z</time></trkpt><trkpt lat="44.8351847" lon="9.4862239"><ele>492.85714285714283</ele><time>2026-04-18T11:53:39.7Z</time></trkpt><trkpt lat="44.8351426" lon="9.4862912"><ele>491.0</ele><time>2026-04-18T11:53:55.781Z</time></trkpt><trkpt lat="44.8351306" lon="9.4863832"><ele>488.4285714285714</ele><time>2026-04-18T11:54:08.7Z</time></trkpt><trkpt lat="44.8351064" lon="9.4864707"><ele>485.8571428571428</ele><time>2026-04-18T11:54:16.725Z</time></trkpt><trkpt lat="44.835085" lon="9.4865621"><ele>483.2857142857143</ele><time>2026-04-18T11:54:25.725Z</time></trkpt><trkpt lat="44.8350679" lon="9.4866482"><ele>480.71428571428567</ele><time>2026-04-18T11:54:32.688Z</time></trkpt><trkpt lat="44.8350515" lon="9.4867395"><ele>478.1428571428571</ele><time>2026-04-18T11:54:41.7Z</time></trkpt><trkpt lat="44.8350337" lon="9.4868257"><ele>475.57142857142856</ele><time>2026-04-18T11:54:48.7Z</time></trkpt><trkpt lat="44.8350098" lon="9.4869208"><ele>473.0</ele><time>2026-04-18T11:54:57.7Z</time></trkpt><trkpt lat="44.8349892" lon="9.487009"><ele>471.14285714285717</ele><time>2026-04-18T11:55:05.699Z</time></trkpt><trkpt lat="44.8349698" lon="9.4871045"><ele>469.2857142857142</ele><time>2026-04-18T11:55:14.742Z</time></trkpt><trkpt lat="44.8349364" lon="9.4871831"><ele>467.4285714285714</ele><time>2026-04-18T11:55:23.709Z</time></trkpt><trkpt lat="44.8349026" lon="9.4872618"><ele>465.57142857142856</ele><time>2026-04-18T11:55:31.724Z</time></trkpt><trkpt lat="44.834868" lon="9.4873554"><ele>463.71428571428567</ele><time>2026-04-18T11:55:39.699Z</time></trkpt><trkpt lat="44.834828" lon="9.4874383"><ele>461.8571428571428</ele><time>2026-04-18T11:55:46.647Z</time></trkpt><trkpt lat="44.834789" lon="9.4875223"><ele>459.99999999999994</ele><time>2026-04-18T11:55:53.746Z</time></trkpt><trkpt lat="44.8347609" lon="9.4876151"><ele>459.99999999999994</ele><time>2026-04-18T11:56:02.7Z</time></trkpt><trkpt lat="44.8347393" lon="9.4877025"><ele>460.0</ele><time>2026-04-18T11:56:08.706Z</time></trkpt><trkpt lat="44.8347326" lon="9.4877931"><ele>459.99999999999994</ele><time>2026-04-18T11:56:13.566Z</time></trkpt><trkpt lat="44.8347235" lon="9.4878847"><ele>459.99999999999994</ele><time>2026-04-18T11:56:21.705Z</time></trkpt><trkpt lat="44.8347507" lon="9.4879705"><ele>460.0</ele><time>2026-04-18T11:56:32.644Z</time></trkpt><trkpt lat="44.8347883" lon="9.4880605"><ele>459.99999999999994</ele><time>2026-04-18T11:56:39.758Z</time></trkpt><trkpt lat="44.8348124" lon="9.4881485"><ele>459.99999999999994</ele><time>2026-04-18T11:56:46.545Z</time></trkpt><trkpt lat="44.8348497" lon="9.4882366"><ele>458.42857142857133</ele><time>2026-04-18T11:56:53.677Z</time></trkpt><trkpt lat="44.8348662" lon="9.4883265"><ele>456.85714285714283</ele><time>2026-04-18T11:57:00.757Z</time></trkpt><trkpt lat="44.8348831" lon="9.4884142"><ele>455.2857142857142</ele><time>2026-04-18T11:57:08.704Z</time></trkpt><trkpt lat="44.8349133" lon="9.4884933"><ele>453.71428571428567</ele><time>2026-04-18T11:57:16.644Z</time></trkpt><trkpt lat="44.8349514" lon="9.4885662"><ele>452.1428571428571</ele><time>2026-04-18T11:57:23.677Z</time></trkpt><trkpt lat="44.8349585" lon="9.4886685"><ele>450.57142857142856</ele><time>2026-04-18T11:57:32.993Z</time></trkpt><trkpt lat="44.8349572" lon="9.4887674"><ele>449.0</ele><time>2026-04-18T11:57:40.716Z</time></trkpt><trkpt lat="44.8349598" lon="9.4888611"><ele>446.71428571428567</ele><time>2026-04-18T11:57:48.743Z</time></trkpt><trkpt lat="44.8349407" lon="9.4889546"><ele>444.4285714285714</ele><time>2026-04-18T11:58:01.682Z</time></trkpt><trkpt lat="44.8349464" lon="9.4890496"><ele>442.1428571428571</ele><time>2026-04-18T11:58:10.716Z</time></trkpt><trkpt lat="44.8349466" lon="9.4891434"><ele>439.85714285714283</ele><time>2026-04-18T11:58:19.716Z</time></trkpt><trkpt lat="44.8349384" lon="9.489235"><ele>437.57142857142856</ele><time>2026-04-18T11:58:28.716Z</time></trkpt><trkpt lat="44.8349329" lon="9.4893241"><ele>435.2857142857142</ele><time>2026-04-18T11:58:36.703Z</time></trkpt><trkpt lat="44.8349163" lon="9.4894175"><ele>433.0</ele><time>2026-04-18T11:58:45.755Z</time></trkpt><trkpt lat="44.8349009" lon="9.4895067"><ele>430.71428571428567</ele><time>2026-04-18T11:58:59.675Z</time></trkpt><trkpt lat="44.8348933" lon="9.4895966"><ele>428.42857142857144</ele><time>2026-04-18T11:59:08.675Z</time></trkpt><trkpt lat="44.8348726" lon="9.4896815"><ele>426.1428571428571</ele><time>2026-04-18T11:59:17.675Z</time></trkpt><trkpt lat="44.8348817" lon="9.4897749"><ele>423.85714285714283</ele><time>2026-04-18T11:59:26.674Z</time></trkpt><trkpt lat="44.8348621" lon="9.4898683"><ele>421.57142857142856</ele><time>2026-04-18T11:59:36.755Z</time></trkpt><trkpt lat="44.8348456" lon="9.4899554"><ele>419.2857142857143</ele><time>2026-04-18T11:59:47.162Z</time></trkpt><trkpt lat="44.8348292" lon="9.4900451"><ele>417.0</ele><time>2026-04-18T11:59:55.661Z</time></trkpt><trkpt lat="44.8348203" lon="9.4901395"><ele>417.0</ele><time>2026-04-18T12:00:05.681Z</time></trkpt><trkpt lat="44.8348007" lon="9.4902306"><ele>417.0</ele><time>2026-04-18T12:00:15.635Z</time></trkpt><trkpt lat="44.8347966" lon="9.4903263"><ele>417.0</ele><time>2026-04-18T12:00:24.635Z</time></trkpt><trkpt lat="44.8347853" lon="9.4904191"><ele>417.0</ele><time>2026-04-18T12:00:31.715Z</time></trkpt><trkpt lat="44.8347738" lon="9.4905108"><ele>417.0</ele><time>2026-04-18T12:00:36.633Z</time></trkpt><trkpt lat="44.8347606" lon="9.490612"><ele>417.0</ele><time>2026-04-18T12:00:42.602Z</time></trkpt><trkpt lat="44.83477" lon="9.4907059"><ele>417.0</ele><time>2026-04-18T12:00:48.082Z</time></trkpt><trkpt lat="44.8347728" lon="9.4908043"><ele>415.14285714285717</ele><time>2026-04-18T12:00:55.594Z</time></trkpt><trkpt lat="44.8347577" lon="9.4908961"><ele>413.2857142857143</ele><time>2026-04-18T12:01:04.722Z</time></trkpt><trkpt lat="44.8347395" lon="9.4909856"><ele>411.42857142857144</ele><time>2026-04-18T12:01:13.613Z</time></trkpt><trkpt lat="44.834776" lon="9.4910672"><ele>409.57142857142856</ele><time>2026-04-18T12:01:31.714Z</time></trkpt><trkpt lat="44.8347608" lon="9.491156"><ele>407.71428571428567</ele><time>2026-04-18T12:01:50.674Z</time></trkpt><trkpt lat="44.8347383" lon="9.4912594"><ele>405.85714285714283</ele><time>2026-04-18T12:02:13.72Z</time></trkpt><trkpt lat="44.8347256" lon="9.4913508"><ele>404.0</ele><time>2026-04-18T12:02:21.515Z</time></trkpt><trkpt lat="44.8347087" lon="9.4914442"><ele>389.0</ele><time>2026-04-18T12:02:27.678Z</time></trkpt><trkpt lat="44.8347003" lon="9.4915346"><ele>389.0</ele><time>2026-04-18T12:02:34.678Z</time></trkpt></trkseg><trkseg><trkpt lat="44.87252" lon="9.5594867"><ele>178.0</ele><time>2026-04-18T13:08:46.404Z</time></trkpt><trkpt lat="44.8726383" lon="9.559565"><ele>181.0</ele><time>2026-04-18T13:08:47.405Z</time></trkpt></trkseg></trk></gpx>